UAL22 EIDW-KEWR
Flight info
| Callsign | UAL22 |
|---|---|
| Flight time | 6h 40m |
| Altitude | 38000 |
| Route | INKUR2J INKUR DCT NEBIN/M083F390 DCT 5430N02000W 5530N03000W 5530N04000W 5430N05000W DCT MELDI/N0478F400 DCT TAFFY DCT KJOHN DCT HANAA FLOSI4 |
| Aircraft | B772/H-SDE2E3FGHIJ5LORVWXY/LB1D1 |
Departure
| Time | 2026-04-26 07:52 |
|---|---|
| Airport | Dublin Airport (EIDW) |
Arrival
| Time | 2026-04-26 14:33 |
|---|---|
| Airport | Newark Liberty International Airport (KEWR) |
| Time | Latitude | Longitude | Altitude | Speed | Heading |
|---|---|---|---|---|---|
| 2026-04-26 07:18 | 53.42288 | -6.24331 | 217 ft | 0 kts | 323° |
| 2026-04-26 07:41 | 53.42279 | -6.24320 | 215 ft | 3 kts | 323° |
| 2026-04-26 07:42 | 53.42261 | -6.24296 | 220 ft | 3 kts | 321° |
| 2026-04-26 07:42 | 53.42242 | -6.24271 | 219 ft | 3 kts | 319° |
| 2026-04-26 07:42 | 53.42225 | -6.24244 | 218 ft | 3 kts | 313° |
| 2026-04-26 07:42 | 53.42210 | -6.24215 | 216 ft | 3 kts | 296° |
| 2026-04-26 07:43 | 53.42205 | -6.24184 | 215 ft | 3 kts | 239° |
| 2026-04-26 07:43 | 53.42202 | -6.24187 | 215 ft | 3 kts | 226° |
| 2026-04-26 07:43 | 53.42198 | -6.24193 | 220 ft | 0 kts | 222° |
| 2026-04-26 07:46 | 53.42185 | -6.24212 | 215 ft | 6 kts | 224° |
| 2026-04-26 07:46 | 53.42159 | -6.24299 | 221 ft | 11 kts | 264° |
| 2026-04-26 07:47 | 53.42165 | -6.24454 | 222 ft | 16 kts | 275° |
| 2026-04-26 07:47 | 53.42179 | -6.24664 | 218 ft | 20 kts | 283° |
| 2026-04-26 07:47 | 53.42290 | -6.24809 | 215 ft | 23 kts | 337° |
| 2026-04-26 07:47 | 53.42448 | -6.24923 | 223 ft | 26 kts | 336° |
| 2026-04-26 07:48 | 53.42622 | -6.25052 | 216 ft | 29 kts | 336° |
| 2026-04-26 07:48 | 53.42787 | -6.25239 | 218 ft | 29 kts | 335° |
| 2026-04-26 07:48 | 53.42973 | -6.25372 | 223 ft | 29 kts | 335° |
| 2026-04-26 07:48 | 53.43158 | -6.25509 | 221 ft | 29 kts | 337° |
| 2026-04-26 07:49 | 53.43332 | -6.25633 | 220 ft | 21 kts | 337° |
| 2026-04-26 07:49 | 53.43407 | -6.25574 | 215 ft | 12 kts | 86° |
| 2026-04-26 07:49 | 53.43401 | -6.25425 | 218 ft | 15 kts | 96° |
| 2026-04-26 07:50 | 53.43380 | -6.25068 | 215 ft | 15 kts | 95° |
| 2026-04-26 07:50 | 53.43368 | -6.24855 | 220 ft | 23 kts | 95° |
| 2026-04-26 07:50 | 53.43351 | -6.24530 | 215 ft | 32 kts | 95° |
| 2026-04-26 07:50 | 53.43331 | -6.24159 | 215 ft | 28 kts | 95° |
| 2026-04-26 07:51 | 53.43331 | -6.23885 | 218 ft | 14 kts | 53° |
| 2026-04-26 07:51 | 53.43424 | -6.23850 | 219 ft | 14 kts | 5° |
| 2026-04-26 07:51 | 53.43493 | -6.23912 | 215 ft | 12 kts | 271° |
| 2026-04-26 07:51 | 53.43494 | -6.24054 | 217 ft | 13 kts | 276° |
| 2026-04-26 07:52 | 53.43515 | -6.24391 | 223 ft | 56 kts | 276° |
| 2026-04-26 07:52 | 53.43573 | -6.25469 | 221 ft | 127 kts | 275° |
| 2026-04-26 07:52 | 53.43666 | -6.27254 | 360 ft | 171 kts | 275° |
| 2026-04-26 07:52 | 53.43765 | -6.29313 | 978 ft | 184 kts | 276° |
| 2026-04-26 07:53 | 53.44244 | -6.31392 | 1414 ft | 204 kts | 312° |
| 2026-04-26 07:53 | 53.45424 | -6.32772 | 1965 ft | 213 kts | 327° |
| 2026-04-26 07:53 | 53.46475 | -6.34601 | 2272 ft | 224 kts | 302° |
| 2026-04-26 07:53 | 53.47314 | -6.36878 | 2823 ft | 232 kts | 302° |
| 2026-04-26 07:54 | 53.48243 | -6.39156 | 3371 ft | 241 kts | 303° |
| 2026-04-26 07:54 | 53.49235 | -6.41516 | 3807 ft | 255 kts | 304° |
| 2026-04-26 07:54 | 53.50288 | -6.44005 | 4406 ft | 264 kts | 304° |
| 2026-04-26 07:54 | 53.51265 | -6.46632 | 4985 ft | 269 kts | 296° |
| 2026-04-26 07:55 | 53.52109 | -6.49455 | 5662 ft | 271 kts | 294° |
| 2026-04-26 07:55 | 53.52935 | -6.52275 | 6334 ft | 273 kts | 294° |
| 2026-04-26 07:55 | 53.53791 | -6.55149 | 6986 ft | 276 kts | 294° |
| 2026-04-26 07:55 | 53.54662 | -6.58043 | 7627 ft | 278 kts | 295° |
| 2026-04-26 07:56 | 53.55220 | -6.59977 | 7988 ft | 277 kts | 289° |
| 2026-04-26 07:56 | 53.55603 | -6.63057 | 8377 ft | 278 kts | 272° |
| 2026-04-26 07:56 | 53.55746 | -6.66327 | 8914 ft | 282 kts | 272° |
| 2026-04-26 07:56 | 53.55914 | -6.69622 | 9557 ft | 282 kts | 272° |
| 2026-04-26 07:57 | 53.56090 | -6.72910 | 10143 ft | 283 kts | 272° |
| 2026-04-26 07:57 | 53.56274 | -6.76238 | 10545 ft | 293 kts | 273° |
| 2026-04-26 07:57 | 53.56467 | -6.79717 | 10685 ft | 311 kts | 273° |
| 2026-04-26 07:57 | 53.56677 | -6.83453 | 10835 ft | 331 kts | 273° |
| 2026-04-26 07:58 | 53.56904 | -6.87412 | 11205 ft | 344 kts | 273° |
| 2026-04-26 07:58 | 53.57139 | -6.91477 | 11808 ft | 352 kts | 274° |
| 2026-04-26 07:58 | 53.57379 | -6.95602 | 12639 ft | 355 kts | 273° |
| 2026-04-26 07:58 | 53.57617 | -6.99762 | 13531 ft | 357 kts | 273° |
| 2026-04-26 07:59 | 53.57854 | -7.03940 | 14323 ft | 361 kts | 274° |
| 2026-04-26 07:59 | 53.58091 | -7.08167 | 15089 ft | 365 kts | 273° |
| 2026-04-26 07:59 | 53.58331 | -7.12448 | 15844 ft | 368 kts | 274° |
| 2026-04-26 07:59 | 53.58571 | -7.16706 | 16268 ft | 370 kts | 274° |
| 2026-04-26 08:00 | 53.58815 | -7.21058 | 16246 ft | 372 kts | 274° |
| 2026-04-26 08:00 | 53.59054 | -7.25397 | 16257 ft | 373 kts | 274° |
| 2026-04-26 08:00 | 53.59294 | -7.29758 | 16257 ft | 373 kts | 274° |
| 2026-04-26 08:00 | 53.59531 | -7.34100 | 16254 ft | 372 kts | 274° |
| 2026-04-26 08:01 | 53.59686 | -7.36986 | 16252 ft | 372 kts | 274° |
| 2026-04-26 08:01 | 53.59868 | -7.40575 | 16275 ft | 374 kts | 272° |
| 2026-04-26 08:01 | 53.59988 | -7.44975 | 16923 ft | 376 kts | 270° |
| 2026-04-26 08:01 | 53.60058 | -7.49404 | 17717 ft | 381 kts | 270° |
| 2026-04-26 08:02 | 53.60165 | -7.53809 | 18506 ft | 377 kts | 270° |
| 2026-04-26 08:02 | 53.60235 | -7.58275 | 19022 ft | 383 kts | 270° |
| 2026-04-26 08:02 | 53.60278 | -7.62737 | 19657 ft | 386 kts | 269° |
| 2026-04-26 08:02 | 53.60335 | -7.67278 | 20293 ft | 389 kts | 270° |
| 2026-04-26 08:03 | 53.60395 | -7.71841 | 20926 ft | 391 kts | 270° |
| 2026-04-26 08:03 | 53.60456 | -7.76423 | 21507 ft | 392 kts | 270° |
| 2026-04-26 08:03 | 53.60518 | -7.81044 | 22034 ft | 396 kts | 270° |
| 2026-04-26 08:03 | 53.60584 | -7.85690 | 22566 ft | 398 kts | 270° |
| 2026-04-26 08:04 | 53.60653 | -7.90370 | 23071 ft | 400 kts | 270° |
| 2026-04-26 08:04 | 53.60721 | -7.95071 | 23569 ft | 403 kts | 270° |
| 2026-04-26 08:04 | 53.60785 | -7.99763 | 24064 ft | 405 kts | 270° |
| 2026-04-26 08:04 | 53.60851 | -8.04515 | 24541 ft | 407 kts | 270° |
| 2026-04-26 08:05 | 53.60915 | -8.09303 | 24987 ft | 410 kts | 270° |
| 2026-04-26 08:05 | 53.60977 | -8.14118 | 25456 ft | 412 kts | 270° |
| 2026-04-26 08:05 | 53.61037 | -8.18951 | 25924 ft | 414 kts | 269° |
| 2026-04-26 08:05 | 53.61094 | -8.23831 | 26373 ft | 416 kts | 269° |
| 2026-04-26 08:06 | 53.61133 | -8.27064 | 26666 ft | 417 kts | 269° |
| 2026-04-26 08:06 | 53.61179 | -8.31145 | 27017 ft | 419 kts | 269° |
| 2026-04-26 08:06 | 53.61233 | -8.36090 | 27428 ft | 422 kts | 269° |
| 2026-04-26 08:06 | 53.61284 | -8.41042 | 27880 ft | 423 kts | 269° |
| 2026-04-26 08:07 | 53.61334 | -8.46018 | 28340 ft | 424 kts | 269° |
| 2026-04-26 08:07 | 53.61384 | -8.51001 | 28748 ft | 426 kts | 268° |
| 2026-04-26 08:07 | 53.61432 | -8.55953 | 29122 ft | 429 kts | 268° |
| 2026-04-26 08:07 | 53.61478 | -8.61011 | 29485 ft | 431 kts | 268° |
| 2026-04-26 08:08 | 53.61521 | -8.66072 | 29825 ft | 433 kts | 268° |
| 2026-04-26 08:08 | 53.61560 | -8.71177 | 30142 ft | 435 kts | 268° |
| 2026-04-26 08:08 | 53.61600 | -8.76282 | 30443 ft | 437 kts | 268° |
| 2026-04-26 08:08 | 53.61639 | -8.81413 | 30731 ft | 439 kts | 268° |
| 2026-04-26 08:09 | 53.61674 | -8.86512 | 30998 ft | 441 kts | 268° |
| 2026-04-26 08:09 | 53.61704 | -8.91693 | 31258 ft | 444 kts | 268° |
| 2026-04-26 08:09 | 53.61735 | -8.96905 | 31487 ft | 446 kts | 268° |
| 2026-04-26 08:09 | 53.61764 | -9.02152 | 31744 ft | 448 kts | 268° |
| 2026-04-26 08:10 | 53.61792 | -9.07417 | 31987 ft | 449 kts | 268° |
| 2026-04-26 08:10 | 53.61817 | -9.12678 | 32272 ft | 449 kts | 268° |
| 2026-04-26 08:10 | 53.61839 | -9.17953 | 32568 ft | 449 kts | 268° |
| 2026-04-26 08:10 | 53.61859 | -9.23211 | 32885 ft | 448 kts | 268° |
| 2026-04-26 08:11 | 53.61871 | -9.26692 | 33088 ft | 448 kts | 267° |
| 2026-04-26 08:11 | 53.61883 | -9.31051 | 33342 ft | 448 kts | 267° |
| 2026-04-26 08:11 | 53.61896 | -9.36247 | 33635 ft | 447 kts | 267° |
| 2026-04-26 08:11 | 53.61907 | -9.41497 | 33926 ft | 447 kts | 267° |
| 2026-04-26 08:12 | 53.61917 | -9.46755 | 34201 ft | 447 kts | 267° |
| 2026-04-26 08:12 | 53.61924 | -9.51930 | 34487 ft | 446 kts | 267° |
| 2026-04-26 08:12 | 53.61929 | -9.57162 | 34750 ft | 447 kts | 267° |
| 2026-04-26 08:12 | 53.61933 | -9.62416 | 35014 ft | 449 kts | 267° |
| 2026-04-26 08:13 | 53.61935 | -9.67666 | 35296 ft | 448 kts | 267° |
| 2026-04-26 08:13 | 53.61931 | -9.72922 | 35550 ft | 448 kts | 267° |
| 2026-04-26 08:13 | 53.61924 | -9.78183 | 35762 ft | 449 kts | 267° |
| 2026-04-26 08:13 | 53.61918 | -9.83391 | 35948 ft | 449 kts | 267° |
| 2026-04-26 08:14 | 53.61905 | -9.88664 | 36176 ft | 449 kts | 267° |
| 2026-04-26 08:14 | 53.61891 | -9.93929 | 36380 ft | 450 kts | 267° |
| 2026-04-26 08:14 | 53.61875 | -9.99212 | 36579 ft | 450 kts | 267° |
| 2026-04-26 08:14 | 53.61862 | -10.04489 | 36793 ft | 451 kts | 267° |
| 2026-04-26 08:15 | 53.61848 | -10.09771 | 37064 ft | 449 kts | 267° |
| 2026-04-26 08:15 | 53.61832 | -10.14962 | 37350 ft | 447 kts | 267° |
| 2026-04-26 08:15 | 53.61810 | -10.20193 | 37605 ft | 446 kts | 267° |
| 2026-04-26 08:15 | 53.61785 | -10.25419 | 37849 ft | 445 kts | 267° |
| 2026-04-26 08:16 | 53.61765 | -10.28929 | 37979 ft | 444 kts | 267° |
| 2026-04-26 08:16 | 53.61740 | -10.33262 | 38127 ft | 445 kts | 267° |
| 2026-04-26 08:16 | 53.61675 | -10.43756 | 38243 ft | 449 kts | 267° |
| 2026-04-26 08:17 | 53.61603 | -10.54241 | 38258 ft | 449 kts | 267° |
| 2026-04-26 08:17 | 53.61519 | -10.64720 | 38265 ft | 444 kts | 267° |
| 2026-04-26 08:18 | 53.61428 | -10.75094 | 38264 ft | 442 kts | 266° |
| 2026-04-26 08:18 | 53.61346 | -10.83712 | 38265 ft | 442 kts | 266° |
| 2026-04-26 08:19 | 53.61241 | -10.94069 | 38268 ft | 442 kts | 266° |
| 2026-04-26 08:19 | 53.61110 | -11.06115 | 38268 ft | 443 kts | 266° |
| 2026-04-26 08:20 | 53.61007 | -11.14752 | 38275 ft | 444 kts | 266° |
| 2026-04-26 08:20 | 53.60870 | -11.25158 | 38266 ft | 444 kts | 266° |
| 2026-04-26 08:21 | 53.60761 | -11.32987 | 38269 ft | 445 kts | 266° |
| 2026-04-26 08:21 | 53.60607 | -11.43439 | 38267 ft | 446 kts | 266° |
| 2026-04-26 08:22 | 53.60447 | -11.53838 | 38266 ft | 447 kts | 266° |
| 2026-04-26 08:22 | 53.60280 | -11.64335 | 38267 ft | 447 kts | 266° |
| 2026-04-26 08:23 | 53.60098 | -11.74769 | 38273 ft | 449 kts | 266° |
| 2026-04-26 08:23 | 53.59915 | -11.85303 | 38268 ft | 449 kts | 266° |
| 2026-04-26 08:24 | 53.59720 | -11.95802 | 38268 ft | 448 kts | 266° |
| 2026-04-26 08:24 | 53.59513 | -12.06208 | 38261 ft | 446 kts | 266° |
| 2026-04-26 08:25 | 53.59297 | -12.16665 | 38266 ft | 446 kts | 266° |
| 2026-04-26 08:25 | 53.59076 | -12.27055 | 38266 ft | 446 kts | 266° |
| 2026-04-26 08:26 | 53.58902 | -12.34900 | 38264 ft | 445 kts | 265° |
| 2026-04-26 08:26 | 53.58665 | -12.45366 | 38264 ft | 446 kts | 265° |
| 2026-04-26 08:27 | 53.58417 | -12.55761 | 38264 ft | 445 kts | 265° |
| 2026-04-26 08:27 | 53.58158 | -12.66169 | 38261 ft | 445 kts | 265° |
| 2026-04-26 08:28 | 53.57893 | -12.76539 | 38258 ft | 446 kts | 265° |
| 2026-04-26 08:28 | 53.57619 | -12.86989 | 38259 ft | 446 kts | 265° |
| 2026-04-26 08:29 | 53.57335 | -12.97465 | 38263 ft | 448 kts | 265° |
| 2026-04-26 08:29 | 53.57039 | -13.07888 | 38259 ft | 448 kts | 265° |
| 2026-04-26 08:30 | 53.56733 | -13.18397 | 38258 ft | 448 kts | 265° |
| 2026-04-26 08:30 | 53.56420 | -13.28866 | 38258 ft | 448 kts | 265° |
| 2026-04-26 08:31 | 53.56182 | -13.36614 | 38258 ft | 448 kts | 265° |
| 2026-04-26 08:31 | 53.55853 | -13.47096 | 38261 ft | 447 kts | 265° |
| 2026-04-26 08:32 | 53.55506 | -13.57473 | 38253 ft | 448 kts | 265° |
| 2026-04-26 08:32 | 53.55164 | -13.67960 | 38259 ft | 448 kts | 265° |
| 2026-04-26 08:33 | 53.54809 | -13.78427 | 38257 ft | 446 kts | 264° |
| 2026-04-26 08:33 | 53.54450 | -13.88792 | 38258 ft | 446 kts | 264° |
| 2026-04-26 08:34 | 53.54082 | -13.99232 | 38259 ft | 446 kts | 264° |
| 2026-04-26 08:34 | 53.53700 | -14.09575 | 38257 ft | 446 kts | 264° |
| 2026-04-26 08:35 | 53.53306 | -14.20009 | 38257 ft | 446 kts | 264° |
| 2026-04-26 08:35 | 53.52909 | -14.30428 | 38258 ft | 445 kts | 264° |
| 2026-04-26 08:36 | 53.52594 | -14.38396 | 38256 ft | 446 kts | 264° |
| 2026-04-26 08:36 | 53.52178 | -14.48759 | 38257 ft | 446 kts | 264° |
| 2026-04-26 08:37 | 53.51752 | -14.59205 | 38260 ft | 447 kts | 264° |
| 2026-04-26 08:37 | 53.51320 | -14.69572 | 38258 ft | 447 kts | 264° |
| 2026-04-26 08:38 | 53.50877 | -14.80004 | 38258 ft | 448 kts | 264° |
| 2026-04-26 08:38 | 53.50424 | -14.90461 | 38259 ft | 448 kts | 264° |
| 2026-04-26 08:39 | 53.50710 | -15.00869 | 38257 ft | 451 kts | 278° |
| 2026-04-26 08:39 | 53.52372 | -15.11078 | 38262 ft | 454 kts | 288° |
| 2026-04-26 08:40 | 53.54625 | -15.20996 | 38258 ft | 453 kts | 288° |
| 2026-04-26 08:40 | 53.56885 | -15.30867 | 38260 ft | 454 kts | 288° |
| 2026-04-26 08:41 | 53.58621 | -15.38581 | 38258 ft | 454 kts | 288° |
| 2026-04-26 08:41 | 53.60824 | -15.48491 | 38257 ft | 454 kts | 288° |
| 2026-04-26 08:42 | 53.63019 | -15.58453 | 38252 ft | 452 kts | 288° |
| 2026-04-26 08:42 | 53.65200 | -15.68411 | 38248 ft | 451 kts | 287° |
| 2026-04-26 08:43 | 53.67352 | -15.78283 | 38249 ft | 450 kts | 287° |
| 2026-04-26 08:43 | 53.69501 | -15.88185 | 38247 ft | 449 kts | 287° |
| 2026-04-26 08:44 | 53.71644 | -15.98083 | 38248 ft | 448 kts | 287° |
| 2026-04-26 08:44 | 53.73760 | -16.07916 | 38249 ft | 447 kts | 287° |
| 2026-04-26 08:45 | 53.75875 | -16.17798 | 38247 ft | 447 kts | 287° |
| 2026-04-26 08:45 | 53.77984 | -16.27716 | 38251 ft | 447 kts | 287° |
| 2026-04-26 08:46 | 53.79630 | -16.35478 | 38249 ft | 448 kts | 287° |
| 2026-04-26 08:46 | 53.81719 | -16.45358 | 38229 ft | 449 kts | 287° |
| 2026-04-26 08:47 | 53.83812 | -16.55336 | 38231 ft | 449 kts | 287° |
| 2026-04-26 08:47 | 53.85896 | -16.65311 | 38227 ft | 449 kts | 287° |
| 2026-04-26 08:48 | 53.87967 | -16.75265 | 38244 ft | 449 kts | 287° |
| 2026-04-26 08:48 | 53.90040 | -16.85284 | 38246 ft | 449 kts | 287° |
| 2026-04-26 08:49 | 53.92087 | -16.95230 | 38234 ft | 448 kts | 287° |
| 2026-04-26 08:49 | 53.94143 | -17.05254 | 38241 ft | 448 kts | 287° |
| 2026-04-26 08:50 | 53.96175 | -17.15215 | 38243 ft | 448 kts | 287° |
| 2026-04-26 08:50 | 53.98210 | -17.25244 | 38247 ft | 449 kts | 287° |
| 2026-04-26 08:51 | 54.00780 | -17.37995 | 38243 ft | 448 kts | 287° |
| 2026-04-26 08:52 | 54.02805 | -17.48079 | 38230 ft | 448 kts | 287° |
| 2026-04-26 08:52 | 54.04797 | -17.58057 | 38247 ft | 446 kts | 287° |
| 2026-04-26 08:53 | 54.06785 | -17.68085 | 38227 ft | 446 kts | 287° |
| 2026-04-26 08:53 | 54.08755 | -17.78040 | 38225 ft | 445 kts | 287° |
| 2026-04-26 08:54 | 54.10722 | -17.88053 | 38233 ft | 444 kts | 287° |
| 2026-04-26 08:54 | 54.12658 | -17.97990 | 38232 ft | 444 kts | 287° |
| 2026-04-26 08:55 | 54.14607 | -18.08003 | 38230 ft | 444 kts | 287° |
| 2026-04-26 08:55 | 54.16548 | -18.18031 | 38234 ft | 444 kts | 286° |
| 2026-04-26 08:56 | 54.18152 | -18.26373 | 38236 ft | 444 kts | 286° |
| 2026-04-26 08:56 | 54.19945 | -18.35737 | 38227 ft | 444 kts | 286° |
| 2026-04-26 08:57 | 54.21864 | -18.45795 | 38224 ft | 444 kts | 286° |
| 2026-04-26 08:57 | 54.23772 | -18.55858 | 38229 ft | 444 kts | 286° |
| 2026-04-26 08:58 | 54.25661 | -18.65862 | 38224 ft | 444 kts | 286° |
| 2026-04-26 08:58 | 54.27549 | -18.75930 | 38221 ft | 444 kts | 286° |
| 2026-04-26 08:59 | 54.29423 | -18.85987 | 38224 ft | 444 kts | 286° |
| 2026-04-26 08:59 | 54.31300 | -18.96089 | 38219 ft | 444 kts | 286° |
| 2026-04-26 09:00 | 54.33151 | -19.06120 | 38221 ft | 444 kts | 285° |
| 2026-04-26 09:00 | 54.35007 | -19.16220 | 38219 ft | 444 kts | 285° |
| 2026-04-26 09:01 | 54.36542 | -19.24623 | 38222 ft | 443 kts | 285° |
| 2026-04-26 09:01 | 54.38251 | -19.34030 | 38221 ft | 443 kts | 285° |
| 2026-04-26 09:02 | 54.40072 | -19.44137 | 38214 ft | 442 kts | 285° |
| 2026-04-26 09:02 | 54.41885 | -19.54177 | 38229 ft | 440 kts | 285° |
| 2026-04-26 09:03 | 54.43682 | -19.64232 | 38221 ft | 440 kts | 285° |
| 2026-04-26 09:03 | 54.45462 | -19.74243 | 38224 ft | 439 kts | 285° |
| 2026-04-26 09:04 | 54.47247 | -19.84324 | 38213 ft | 440 kts | 285° |
| 2026-04-26 09:04 | 54.49014 | -19.94356 | 38210 ft | 440 kts | 285° |
| 2026-04-26 09:05 | 54.50739 | -20.04488 | 38175 ft | 440 kts | 283° |
| 2026-04-26 09:05 | 54.52201 | -20.14705 | 38157 ft | 437 kts | 282° |
| 2026-04-26 09:06 | 54.53367 | -20.23181 | 38133 ft | 436 kts | 282° |
| 2026-04-26 09:06 | 54.54434 | -20.30922 | 38147 ft | 434 kts | 282° |
| 2026-04-26 09:07 | 54.56079 | -20.42703 | 38119 ft | 434 kts | 283° |
| 2026-04-26 09:07 | 54.57258 | -20.51137 | 38112 ft | 434 kts | 282° |
| 2026-04-26 09:08 | 54.58903 | -20.62926 | 38114 ft | 434 kts | 282° |
| 2026-04-26 09:08 | 54.60073 | -20.71376 | 38109 ft | 435 kts | 282° |
| 2026-04-26 09:09 | 54.61471 | -20.81556 | 38111 ft | 436 kts | 282° |
| 2026-04-26 09:09 | 54.62859 | -20.91734 | 38114 ft | 437 kts | 282° |
| 2026-04-26 09:10 | 54.64246 | -21.01987 | 38112 ft | 438 kts | 282° |
| 2026-04-26 09:10 | 54.65629 | -21.12251 | 38112 ft | 439 kts | 282° |
| 2026-04-26 09:11 | 54.66999 | -21.22480 | 38100 ft | 440 kts | 282° |
| 2026-04-26 09:11 | 54.68026 | -21.30244 | 38102 ft | 440 kts | 282° |
| 2026-04-26 09:12 | 54.69377 | -21.40513 | 38101 ft | 440 kts | 282° |
| 2026-04-26 09:12 | 54.70732 | -21.50837 | 38101 ft | 439 kts | 282° |
| 2026-04-26 09:13 | 54.72077 | -21.61158 | 38096 ft | 438 kts | 282° |
| 2026-04-26 09:13 | 54.73403 | -21.71404 | 38103 ft | 438 kts | 281° |
| 2026-04-26 09:14 | 54.74727 | -21.81730 | 38102 ft | 439 kts | 281° |
| 2026-04-26 09:14 | 54.76037 | -21.92024 | 38097 ft | 439 kts | 281° |
| 2026-04-26 09:15 | 54.77344 | -22.02364 | 38089 ft | 438 kts | 281° |
| 2026-04-26 09:15 | 54.78632 | -22.12650 | 38097 ft | 438 kts | 281° |
| 2026-04-26 09:16 | 54.79919 | -22.23001 | 38095 ft | 438 kts | 281° |
| 2026-04-26 09:16 | 54.80880 | -22.30764 | 38086 ft | 439 kts | 281° |
| 2026-04-26 09:17 | 54.82153 | -22.41092 | 38092 ft | 438 kts | 281° |
| 2026-04-26 09:17 | 54.83411 | -22.51391 | 38091 ft | 438 kts | 281° |
| 2026-04-26 09:18 | 54.84662 | -22.61752 | 38095 ft | 437 kts | 281° |
| 2026-04-26 09:18 | 54.85903 | -22.72107 | 38094 ft | 437 kts | 281° |
| 2026-04-26 09:19 | 54.87127 | -22.82406 | 38101 ft | 437 kts | 281° |
| 2026-04-26 09:19 | 54.88346 | -22.92692 | 38094 ft | 436 kts | 281° |
| 2026-04-26 09:20 | 54.89561 | -23.03029 | 38101 ft | 436 kts | 281° |
| 2026-04-26 09:20 | 54.90767 | -23.13380 | 38103 ft | 437 kts | 281° |
| 2026-04-26 09:21 | 54.91959 | -23.23696 | 38102 ft | 437 kts | 280° |
| 2026-04-26 09:21 | 54.92852 | -23.31497 | 38101 ft | 438 kts | 280° |
| 2026-04-26 09:22 | 54.94041 | -23.41900 | 38098 ft | 438 kts | 280° |
| 2026-04-26 09:22 | 54.95208 | -23.52237 | 38104 ft | 437 kts | 280° |
| 2026-04-26 09:23 | 54.96370 | -23.62641 | 38101 ft | 438 kts | 280° |
| 2026-04-26 09:23 | 54.97529 | -23.73042 | 38110 ft | 437 kts | 280° |
| 2026-04-26 09:24 | 54.98680 | -23.83466 | 38105 ft | 438 kts | 280° |
| 2026-04-26 09:24 | 54.99815 | -23.93815 | 38099 ft | 437 kts | 280° |
| 2026-04-26 09:25 | 55.00940 | -24.04217 | 38104 ft | 437 kts | 279° |
| 2026-04-26 09:25 | 55.02059 | -24.14662 | 38100 ft | 436 kts | 279° |
| 2026-04-26 09:26 | 55.02976 | -24.23238 | 38101 ft | 435 kts | 279° |
| 2026-04-26 09:26 | 55.03981 | -24.32734 | 38093 ft | 433 kts | 279° |
| 2026-04-26 09:27 | 55.05070 | -24.43091 | 38104 ft | 434 kts | 279° |
| 2026-04-26 09:27 | 55.06153 | -24.53470 | 38101 ft | 434 kts | 279° |
| 2026-04-26 09:28 | 55.07217 | -24.63782 | 38104 ft | 434 kts | 279° |
| 2026-04-26 09:28 | 55.08285 | -24.74226 | 38094 ft | 436 kts | 279° |
| 2026-04-26 09:29 | 55.09333 | -24.84657 | 38093 ft | 436 kts | 279° |
| 2026-04-26 09:29 | 55.10386 | -24.95041 | 38094 ft | 436 kts | 279° |
| 2026-04-26 09:30 | 55.11436 | -25.05502 | 38096 ft | 438 kts | 279° |
| 2026-04-26 09:30 | 55.12467 | -25.15954 | 38090 ft | 436 kts | 279° |
| 2026-04-26 09:31 | 55.13316 | -25.24655 | 38093 ft | 437 kts | 278° |
| 2026-04-26 09:31 | 55.14239 | -25.34232 | 38090 ft | 437 kts | 278° |
| 2026-04-26 09:32 | 55.15241 | -25.44645 | 38087 ft | 435 kts | 278° |
| 2026-04-26 09:32 | 55.16234 | -25.55077 | 38094 ft | 433 kts | 278° |
| 2026-04-26 09:33 | 55.17209 | -25.65464 | 38082 ft | 431 kts | 278° |
| 2026-04-26 09:33 | 55.18180 | -25.75782 | 38088 ft | 433 kts | 278° |
| 2026-04-26 09:34 | 55.19139 | -25.86226 | 38079 ft | 435 kts | 278° |
| 2026-04-26 09:34 | 55.20103 | -25.96710 | 38092 ft | 435 kts | 278° |
| 2026-04-26 09:35 | 55.21048 | -26.07115 | 38079 ft | 435 kts | 278° |
| 2026-04-26 09:35 | 55.21991 | -26.17605 | 38080 ft | 433 kts | 277° |
| 2026-04-26 09:36 | 55.22765 | -26.26303 | 38080 ft | 433 kts | 277° |
| 2026-04-26 09:36 | 55.23614 | -26.35845 | 38078 ft | 434 kts | 277° |
| 2026-04-26 09:37 | 55.24524 | -26.46274 | 38082 ft | 435 kts | 277° |
| 2026-04-26 09:37 | 55.25433 | -26.56796 | 38077 ft | 435 kts | 277° |
| 2026-04-26 09:38 | 55.26326 | -26.67276 | 38078 ft | 436 kts | 277° |
| 2026-04-26 09:38 | 55.27215 | -26.77803 | 38064 ft | 434 kts | 277° |
| 2026-04-26 09:39 | 55.28096 | -26.88221 | 38068 ft | 433 kts | 277° |
| 2026-04-26 09:39 | 55.28973 | -26.98735 | 38016 ft | 436 kts | 277° |
| 2026-04-26 09:40 | 55.29834 | -27.09289 | 38013 ft | 437 kts | 276° |
| 2026-04-26 09:40 | 55.30680 | -27.19786 | 38012 ft | 437 kts | 276° |
| 2026-04-26 09:41 | 55.31377 | -27.28547 | 38015 ft | 435 kts | 276° |
| 2026-04-26 09:41 | 55.32142 | -27.38214 | 38012 ft | 433 kts | 276° |
| 2026-04-26 09:42 | 55.32977 | -27.48625 | 38023 ft | 432 kts | 276° |
| 2026-04-26 09:42 | 55.33795 | -27.59137 | 38022 ft | 433 kts | 276° |
| 2026-04-26 09:43 | 55.34596 | -27.69577 | 38016 ft | 432 kts | 276° |
| 2026-04-26 09:43 | 55.35393 | -27.80052 | 38024 ft | 432 kts | 275° |
| 2026-04-26 09:44 | 55.36184 | -27.90545 | 38019 ft | 432 kts | 275° |
| 2026-04-26 09:44 | 55.36964 | -28.01003 | 38020 ft | 432 kts | 275° |
| 2026-04-26 09:45 | 55.37735 | -28.11542 | 38009 ft | 433 kts | 275° |
| 2026-04-26 09:45 | 55.38498 | -28.21990 | 38012 ft | 433 kts | 275° |
| 2026-04-26 09:46 | 55.39131 | -28.30748 | 38009 ft | 434 kts | 275° |
| 2026-04-26 09:46 | 55.39814 | -28.40465 | 38016 ft | 435 kts | 275° |
| 2026-04-26 09:47 | 55.40554 | -28.51051 | 38005 ft | 435 kts | 275° |
| 2026-04-26 09:47 | 55.41284 | -28.61605 | 38012 ft | 435 kts | 274° |
| 2026-04-26 09:48 | 55.42010 | -28.72127 | 38010 ft | 434 kts | 274° |
| 2026-04-26 09:48 | 55.42715 | -28.82682 | 38006 ft | 435 kts | 274° |
| 2026-04-26 09:49 | 55.43421 | -28.93258 | 38013 ft | 434 kts | 274° |
| 2026-04-26 09:49 | 55.44117 | -29.03858 | 38007 ft | 435 kts | 274° |
| 2026-04-26 09:50 | 55.44799 | -29.14414 | 38012 ft | 436 kts | 274° |
| 2026-04-26 09:50 | 55.45472 | -29.24996 | 38009 ft | 437 kts | 274° |
| 2026-04-26 09:51 | 55.46032 | -29.33861 | 38005 ft | 436 kts | 273° |
| 2026-04-26 09:51 | 55.46645 | -29.43675 | 38015 ft | 436 kts | 273° |
| 2026-04-26 09:52 | 55.47298 | -29.54263 | 38013 ft | 437 kts | 273° |
| 2026-04-26 09:52 | 55.48259 | -29.70276 | 38011 ft | 436 kts | 272° |
| 2026-04-26 09:53 | 55.48886 | -29.80858 | 38008 ft | 436 kts | 273° |
| 2026-04-26 09:53 | 55.49512 | -29.91503 | 38010 ft | 435 kts | 273° |
| 2026-04-26 09:54 | 55.50101 | -30.02181 | 38014 ft | 437 kts | 272° |
| 2026-04-26 09:54 | 55.50555 | -30.12820 | 38009 ft | 437 kts | 271° |
| 2026-04-26 09:55 | 55.50892 | -30.21735 | 38008 ft | 437 kts | 270° |
| 2026-04-26 09:55 | 55.51285 | -30.32440 | 38010 ft | 436 kts | 270° |
| 2026-04-26 09:56 | 55.51580 | -30.40477 | 38011 ft | 436 kts | 270° |
| 2026-04-26 09:56 | 55.51976 | -30.51181 | 38008 ft | 435 kts | 270° |
| 2026-04-26 09:57 | 55.52364 | -30.61802 | 38007 ft | 435 kts | 270° |
| 2026-04-26 09:57 | 55.52743 | -30.72464 | 38008 ft | 433 kts | 270° |
| 2026-04-26 09:58 | 55.53101 | -30.83080 | 38008 ft | 434 kts | 270° |
| 2026-04-26 09:58 | 55.53462 | -30.93699 | 38016 ft | 437 kts | 270° |
| 2026-04-26 09:59 | 55.53819 | -31.04431 | 38007 ft | 437 kts | 269° |
| 2026-04-26 09:59 | 55.54150 | -31.15137 | 38009 ft | 436 kts | 269° |
| 2026-04-26 10:00 | 55.54480 | -31.25828 | 37940 ft | 440 kts | 269° |
| 2026-04-26 10:00 | 55.54809 | -31.36665 | 37918 ft | 441 kts | 269° |
| 2026-04-26 10:01 | 55.55044 | -31.44659 | 37916 ft | 440 kts | 269° |
| 2026-04-26 10:01 | 55.55353 | -31.55475 | 37915 ft | 440 kts | 269° |
| 2026-04-26 10:02 | 55.55651 | -31.66197 | 37912 ft | 438 kts | 269° |
| 2026-04-26 10:02 | 55.55941 | -31.76957 | 37915 ft | 437 kts | 269° |
| 2026-04-26 10:03 | 55.56219 | -31.87653 | 37919 ft | 437 kts | 268° |
| 2026-04-26 10:03 | 55.56482 | -31.98381 | 37917 ft | 436 kts | 268° |
| 2026-04-26 10:04 | 55.56742 | -32.09077 | 37909 ft | 437 kts | 268° |
| 2026-04-26 10:04 | 55.56992 | -32.19818 | 37906 ft | 437 kts | 268° |
| 2026-04-26 10:05 | 55.57234 | -32.30529 | 37909 ft | 438 kts | 268° |
| 2026-04-26 10:05 | 55.57464 | -32.41295 | 37908 ft | 438 kts | 268° |
| 2026-04-26 10:06 | 55.57632 | -32.49452 | 37901 ft | 439 kts | 268° |
| 2026-04-26 10:06 | 55.57845 | -32.60177 | 37905 ft | 440 kts | 268° |
| 2026-04-26 10:07 | 55.58050 | -32.71038 | 37909 ft | 441 kts | 267° |
| 2026-04-26 10:07 | 55.58246 | -32.81816 | 37908 ft | 442 kts | 267° |
| 2026-04-26 10:08 | 55.58435 | -32.92709 | 37907 ft | 443 kts | 267° |
| 2026-04-26 10:08 | 55.58614 | -33.03646 | 37910 ft | 445 kts | 267° |
| 2026-04-26 10:09 | 55.58783 | -33.14559 | 37906 ft | 446 kts | 267° |
| 2026-04-26 10:09 | 55.58945 | -33.25542 | 37906 ft | 446 kts | 267° |
| 2026-04-26 10:10 | 55.59097 | -33.36453 | 37908 ft | 447 kts | 266° |
| 2026-04-26 10:10 | 55.59240 | -33.47476 | 37909 ft | 448 kts | 266° |
| 2026-04-26 10:11 | 55.59341 | -33.55843 | 37905 ft | 449 kts | 266° |
| 2026-04-26 10:11 | 55.59465 | -33.66841 | 37905 ft | 449 kts | 266° |
| 2026-04-26 10:12 | 55.59578 | -33.77884 | 37905 ft | 449 kts | 266° |
| 2026-04-26 10:12 | 55.59688 | -33.88931 | 37897 ft | 448 kts | 266° |
| 2026-04-26 10:13 | 55.59782 | -33.99896 | 37900 ft | 448 kts | 266° |
| 2026-04-26 10:13 | 55.59866 | -34.10912 | 37894 ft | 447 kts | 266° |
| 2026-04-26 10:14 | 55.59937 | -34.21872 | 37898 ft | 447 kts | 266° |
| 2026-04-26 10:14 | 55.60000 | -34.32905 | 37901 ft | 448 kts | 266° |
| 2026-04-26 10:15 | 55.60056 | -34.43937 | 37902 ft | 448 kts | 265° |
| 2026-04-26 10:15 | 55.60103 | -34.54945 | 37895 ft | 450 kts | 265° |
| 2026-04-26 10:16 | 55.60132 | -34.63292 | 37895 ft | 450 kts | 265° |
| 2026-04-26 10:16 | 55.60159 | -34.74329 | 37892 ft | 450 kts | 265° |
| 2026-04-26 10:17 | 55.60176 | -34.85425 | 37898 ft | 451 kts | 265° |
| 2026-04-26 10:17 | 55.60185 | -34.96538 | 37901 ft | 452 kts | 265° |
| 2026-04-26 10:18 | 55.60183 | -35.07697 | 37898 ft | 453 kts | 265° |
| 2026-04-26 10:18 | 55.60178 | -35.18790 | 37893 ft | 453 kts | 264° |
| 2026-04-26 10:19 | 55.60151 | -35.29985 | 37889 ft | 454 kts | 264° |
| 2026-04-26 10:19 | 55.60114 | -35.41151 | 37892 ft | 455 kts | 264° |
| 2026-04-26 10:20 | 55.60081 | -35.50479 | 37894 ft | 456 kts | 264° |
| 2026-04-26 10:20 | 55.60022 | -35.63550 | 37889 ft | 456 kts | 264° |
| 2026-04-26 10:21 | 55.59975 | -35.71988 | 37890 ft | 457 kts | 264° |
| 2026-04-26 10:21 | 55.59903 | -35.83259 | 37893 ft | 458 kts | 264° |
| 2026-04-26 10:22 | 55.59821 | -35.94541 | 37891 ft | 459 kts | 264° |
| 2026-04-26 10:22 | 55.59730 | -36.05845 | 37888 ft | 459 kts | 264° |
| 2026-04-26 10:23 | 55.59628 | -36.17086 | 37891 ft | 459 kts | 264° |
| 2026-04-26 10:23 | 55.59518 | -36.28392 | 37886 ft | 459 kts | 264° |
| 2026-04-26 10:24 | 55.59395 | -36.39696 | 37892 ft | 460 kts | 263° |
| 2026-04-26 10:24 | 55.59257 | -36.50958 | 37886 ft | 461 kts | 263° |
| 2026-04-26 10:25 | 55.59112 | -36.62304 | 37892 ft | 462 kts | 263° |
| 2026-04-26 10:25 | 55.58959 | -36.73616 | 37888 ft | 462 kts | 263° |
| 2026-04-26 10:26 | 55.58838 | -36.82142 | 37886 ft | 463 kts | 263° |
| 2026-04-26 10:26 | 55.58661 | -36.93546 | 37885 ft | 465 kts | 263° |
| 2026-04-26 10:27 | 55.58477 | -37.04943 | 37874 ft | 465 kts | 263° |
| 2026-04-26 10:27 | 55.58281 | -37.16402 | 37881 ft | 466 kts | 263° |
| 2026-04-26 10:28 | 55.58070 | -37.27893 | 37803 ft | 468 kts | 263° |
| 2026-04-26 10:28 | 55.57854 | -37.39354 | 37784 ft | 469 kts | 263° |
| 2026-04-26 10:29 | 55.57627 | -37.50878 | 37778 ft | 468 kts | 263° |
| 2026-04-26 10:29 | 55.57385 | -37.62340 | 37780 ft | 469 kts | 263° |
| 2026-04-26 10:30 | 55.57133 | -37.73885 | 37776 ft | 469 kts | 263° |
| 2026-04-26 10:30 | 55.56870 | -37.85421 | 37777 ft | 469 kts | 263° |
| 2026-04-26 10:31 | 55.56599 | -37.96879 | 37779 ft | 469 kts | 262° |
| 2026-04-26 10:31 | 55.56315 | -38.08427 | 37774 ft | 469 kts | 262° |
| 2026-04-26 10:32 | 55.56016 | -38.19966 | 37777 ft | 470 kts | 262° |
| 2026-04-26 10:32 | 55.55712 | -38.31438 | 37778 ft | 470 kts | 262° |
| 2026-04-26 10:33 | 55.55398 | -38.42997 | 37780 ft | 471 kts | 262° |
| 2026-04-26 10:33 | 55.55069 | -38.54573 | 37777 ft | 472 kts | 262° |
| 2026-04-26 10:34 | 55.54726 | -38.66200 | 37778 ft | 473 kts | 262° |
| 2026-04-26 10:34 | 55.54374 | -38.77738 | 37774 ft | 473 kts | 262° |
| 2026-04-26 10:35 | 55.54011 | -38.89370 | 37767 ft | 474 kts | 262° |
| 2026-04-26 10:35 | 55.53639 | -39.00932 | 37768 ft | 475 kts | 262° |
| 2026-04-26 10:36 | 55.53251 | -39.12613 | 37763 ft | 475 kts | 262° |
| 2026-04-26 10:36 | 55.52855 | -39.24237 | 37767 ft | 477 kts | 262° |
| 2026-04-26 10:37 | 55.52440 | -39.35969 | 37760 ft | 479 kts | 262° |
| 2026-04-26 10:37 | 55.52018 | -39.47737 | 37757 ft | 479 kts | 262° |
| 2026-04-26 10:38 | 55.51588 | -39.59417 | 37760 ft | 479 kts | 262° |
| 2026-04-26 10:38 | 55.51143 | -39.71169 | 37760 ft | 480 kts | 262° |
| 2026-04-26 10:39 | 55.50687 | -39.82877 | 37760 ft | 480 kts | 262° |
| 2026-04-26 10:39 | 55.50218 | -39.94649 | 37758 ft | 481 kts | 262° |
| 2026-04-26 10:40 | 55.49693 | -40.06372 | 37756 ft | 480 kts | 261° |
| 2026-04-26 10:40 | 55.48998 | -40.18086 | 37760 ft | 480 kts | 260° |
| 2026-04-26 10:41 | 55.48275 | -40.29748 | 37761 ft | 479 kts | 260° |
| 2026-04-26 10:41 | 55.47552 | -40.41463 | 37757 ft | 479 kts | 260° |
| 2026-04-26 10:42 | 55.46954 | -40.51192 | 37759 ft | 480 kts | 260° |
| 2026-04-26 10:42 | 55.46111 | -40.64837 | 37758 ft | 481 kts | 260° |
| 2026-04-26 10:43 | 55.45373 | -40.76582 | 37759 ft | 482 kts | 260° |
| 2026-04-26 10:43 | 55.44626 | -40.88269 | 37759 ft | 482 kts | 260° |
| 2026-04-26 10:44 | 55.43989 | -40.98074 | 37746 ft | 483 kts | 259° |
| 2026-04-26 10:44 | 55.43082 | -41.11780 | 37748 ft | 484 kts | 259° |
| 2026-04-26 10:45 | 55.42423 | -41.21609 | 37748 ft | 485 kts | 259° |
| 2026-04-26 10:45 | 55.41621 | -41.33430 | 37748 ft | 485 kts | 259° |
| 2026-04-26 10:46 | 55.40809 | -41.45188 | 37749 ft | 487 kts | 259° |
| 2026-04-26 10:46 | 55.39984 | -41.57079 | 37942 ft | 489 kts | 259° |
| 2026-04-26 10:47 | 55.39568 | -41.63010 | 38187 ft | 488 kts | 259° |
| 2026-04-26 10:47 | 55.39152 | -41.68864 | 38413 ft | 488 kts | 259° |
| 2026-04-26 10:47 | 55.38726 | -41.74802 | 38565 ft | 489 kts | 259° |
| 2026-04-26 10:47 | 55.38296 | -41.80747 | 38732 ft | 489 kts | 259° |
| 2026-04-26 10:48 | 55.37863 | -41.86715 | 38906 ft | 490 kts | 259° |
| 2026-04-26 10:48 | 55.37429 | -41.92653 | 39097 ft | 490 kts | 260° |
| 2026-04-26 10:48 | 55.36997 | -41.98539 | 39263 ft | 490 kts | 259° |
| 2026-04-26 10:48 | 55.36560 | -42.04478 | 39426 ft | 490 kts | 260° |
| 2026-04-26 10:49 | 55.36116 | -42.10435 | 39562 ft | 491 kts | 260° |
| 2026-04-26 10:49 | 55.35666 | -42.16401 | 39654 ft | 492 kts | 260° |
| 2026-04-26 10:49 | 55.34763 | -42.28292 | 39743 ft | 494 kts | 260° |
| 2026-04-26 10:50 | 55.33840 | -42.40278 | 39750 ft | 493 kts | 260° |
| 2026-04-26 10:50 | 55.32910 | -42.52221 | 39749 ft | 492 kts | 259° |
| 2026-04-26 10:51 | 55.31501 | -42.70033 | 39750 ft | 490 kts | 259° |
| 2026-04-26 10:52 | 55.30553 | -42.81828 | 39748 ft | 490 kts | 259° |
| 2026-04-26 10:52 | 55.29597 | -42.93627 | 39744 ft | 489 kts | 259° |
| 2026-04-26 10:53 | 55.28621 | -43.05439 | 39752 ft | 489 kts | 259° |
| 2026-04-26 10:53 | 55.27634 | -43.17294 | 39748 ft | 489 kts | 259° |
| 2026-04-26 10:54 | 55.26135 | -43.34989 | 39742 ft | 491 kts | 259° |
| 2026-04-26 10:54 | 55.25116 | -43.46863 | 39742 ft | 493 kts | 259° |
| 2026-04-26 10:55 | 55.24078 | -43.58775 | 39739 ft | 493 kts | 259° |
| 2026-04-26 10:55 | 55.23038 | -43.70596 | 39741 ft | 494 kts | 259° |
| 2026-04-26 10:56 | 55.21978 | -43.82497 | 39739 ft | 494 kts | 259° |
| 2026-04-26 10:56 | 55.20907 | -43.94422 | 39740 ft | 494 kts | 259° |
| 2026-04-26 10:57 | 55.19835 | -44.06234 | 39739 ft | 493 kts | 259° |
| 2026-04-26 10:57 | 55.18754 | -44.18023 | 39736 ft | 492 kts | 259° |
| 2026-04-26 10:58 | 55.17648 | -44.29877 | 39740 ft | 492 kts | 259° |
| 2026-04-26 10:58 | 55.16538 | -44.41663 | 39742 ft | 492 kts | 259° |
| 2026-04-26 10:59 | 55.15414 | -44.53478 | 39741 ft | 493 kts | 259° |
| 2026-04-26 10:59 | 55.14277 | -44.65316 | 39742 ft | 493 kts | 259° |
| 2026-04-26 11:00 | 55.13128 | -44.77171 | 39740 ft | 495 kts | 259° |
| 2026-04-26 11:00 | 55.11970 | -44.88964 | 39732 ft | 495 kts | 259° |
| 2026-04-26 11:01 | 55.10792 | -45.00836 | 39730 ft | 495 kts | 259° |
| 2026-04-26 11:01 | 55.09608 | -45.12684 | 39734 ft | 495 kts | 259° |
| 2026-04-26 11:02 | 55.08415 | -45.24474 | 39730 ft | 496 kts | 259° |
| 2026-04-26 11:02 | 55.07192 | -45.36363 | 39731 ft | 496 kts | 259° |
| 2026-04-26 11:03 | 55.05974 | -45.48135 | 39729 ft | 496 kts | 259° |
| 2026-04-26 11:03 | 55.04738 | -45.60013 | 39745 ft | 494 kts | 259° |
| 2026-04-26 11:04 | 55.03503 | -45.71751 | 39748 ft | 494 kts | 259° |
| 2026-04-26 11:04 | 55.02249 | -45.83557 | 39747 ft | 493 kts | 259° |
| 2026-04-26 11:05 | 55.00991 | -45.95257 | 39740 ft | 494 kts | 259° |
| 2026-04-26 11:05 | 54.99711 | -46.07050 | 39740 ft | 495 kts | 259° |
| 2026-04-26 11:06 | 54.98425 | -46.18800 | 39743 ft | 496 kts | 259° |
| 2026-04-26 11:06 | 54.97123 | -46.30613 | 39742 ft | 497 kts | 259° |
| 2026-04-26 11:07 | 54.95801 | -46.42458 | 39740 ft | 498 kts | 259° |
| 2026-04-26 11:07 | 54.94466 | -46.54311 | 39740 ft | 499 kts | 259° |
| 2026-04-26 11:08 | 54.93121 | -46.66110 | 39738 ft | 499 kts | 258° |
| 2026-04-26 11:08 | 54.91765 | -46.77954 | 39742 ft | 499 kts | 258° |
| 2026-04-26 11:09 | 54.90392 | -46.89824 | 39738 ft | 500 kts | 258° |
| 2026-04-26 11:09 | 54.89013 | -47.01613 | 39766 ft | 500 kts | 258° |
| 2026-04-26 11:10 | 54.87618 | -47.13457 | 39847 ft | 499 kts | 258° |
| 2026-04-26 11:10 | 54.86220 | -47.25237 | 39854 ft | 500 kts | 258° |
| 2026-04-26 11:11 | 54.84797 | -47.37091 | 39851 ft | 502 kts | 258° |
| 2026-04-26 11:11 | 54.83356 | -47.48990 | 39852 ft | 502 kts | 258° |
| 2026-04-26 11:12 | 54.81913 | -47.60799 | 39853 ft | 503 kts | 258° |
| 2026-04-26 11:12 | 54.80452 | -47.72643 | 39856 ft | 504 kts | 258° |
| 2026-04-26 11:13 | 54.78974 | -47.84538 | 39853 ft | 504 kts | 258° |
| 2026-04-26 11:13 | 54.77493 | -47.96413 | 39853 ft | 504 kts | 257° |
| 2026-04-26 11:14 | 54.76003 | -48.08204 | 39849 ft | 504 kts | 257° |
| 2026-04-26 11:14 | 54.74745 | -48.18076 | 39859 ft | 504 kts | 257° |
| 2026-04-26 11:15 | 54.72972 | -48.31876 | 39862 ft | 504 kts | 257° |
| 2026-04-26 11:15 | 54.71437 | -48.43740 | 39865 ft | 503 kts | 257° |
| 2026-04-26 11:16 | 54.69899 | -48.55525 | 39858 ft | 503 kts | 257° |
| 2026-04-26 11:16 | 54.68338 | -48.67345 | 39861 ft | 503 kts | 257° |
| 2026-04-26 11:17 | 54.66778 | -48.79096 | 39861 ft | 503 kts | 257° |
| 2026-04-26 11:17 | 54.65202 | -48.90896 | 39863 ft | 504 kts | 257° |
| 2026-04-26 11:18 | 54.63618 | -49.02655 | 39865 ft | 505 kts | 257° |
| 2026-04-26 11:18 | 54.62008 | -49.14480 | 39861 ft | 505 kts | 257° |
| 2026-04-26 11:19 | 54.60400 | -49.26207 | 39860 ft | 504 kts | 257° |
| 2026-04-26 11:19 | 54.58769 | -49.38027 | 39875 ft | 504 kts | 257° |
| 2026-04-26 11:20 | 54.57407 | -49.47789 | 39952 ft | 502 kts | 257° |
| 2026-04-26 11:20 | 54.55498 | -49.61403 | 39976 ft | 501 kts | 257° |
| 2026-04-26 11:21 | 54.53855 | -49.73032 | 39982 ft | 502 kts | 257° |
| 2026-04-26 11:21 | 54.52189 | -49.84755 | 39980 ft | 504 kts | 257° |
| 2026-04-26 11:22 | 54.50512 | -49.96444 | 39982 ft | 505 kts | 256° |
| 2026-04-26 11:22 | 54.48218 | -50.07864 | 39983 ft | 506 kts | 248° |
| 2026-04-26 11:23 | 54.45464 | -50.18977 | 39984 ft | 507 kts | 247° |
| 2026-04-26 11:23 | 54.42679 | -50.30134 | 39983 ft | 507 kts | 247° |
| 2026-04-26 11:24 | 54.39920 | -50.41318 | 39978 ft | 508 kts | 248° |
| 2026-04-26 11:24 | 54.37170 | -50.52501 | 39983 ft | 508 kts | 248° |
| 2026-04-26 11:25 | 54.34415 | -50.63623 | 39983 ft | 509 kts | 248° |
| 2026-04-26 11:25 | 54.31636 | -50.74813 | 39979 ft | 509 kts | 248° |
| 2026-04-26 11:26 | 54.28849 | -50.85954 | 39981 ft | 509 kts | 248° |
| 2026-04-26 11:26 | 54.26059 | -50.97052 | 39983 ft | 510 kts | 247° |
| 2026-04-26 11:27 | 54.23244 | -51.08197 | 39969 ft | 509 kts | 248° |
| 2026-04-26 11:27 | 54.20451 | -51.19209 | 39988 ft | 507 kts | 247° |
| 2026-04-26 11:28 | 54.17623 | -51.30252 | 39982 ft | 508 kts | 247° |
| 2026-04-26 11:28 | 54.14787 | -51.41333 | 39982 ft | 509 kts | 247° |
| 2026-04-26 11:29 | 54.11938 | -51.52409 | 39982 ft | 509 kts | 247° |
| 2026-04-26 11:29 | 54.09080 | -51.63423 | 39982 ft | 511 kts | 247° |
| 2026-04-26 11:30 | 54.06671 | -51.72666 | 39973 ft | 511 kts | 247° |
| 2026-04-26 11:30 | 54.03303 | -51.85607 | 39991 ft | 514 kts | 247° |
| 2026-04-26 11:31 | 54.00398 | -51.96619 | 39979 ft | 514 kts | 246° |
| 2026-04-26 11:31 | 53.97461 | -52.07694 | 39983 ft | 512 kts | 246° |
| 2026-04-26 11:32 | 53.94544 | -52.18698 | 39982 ft | 513 kts | 246° |
| 2026-04-26 11:32 | 53.92091 | -52.27937 | 39988 ft | 515 kts | 246° |
| 2026-04-26 11:33 | 53.88642 | -52.40840 | 39979 ft | 515 kts | 246° |
| 2026-04-26 11:33 | 53.86165 | -52.50021 | 39965 ft | 514 kts | 246° |
| 2026-04-26 11:34 | 53.83180 | -52.61047 | 39982 ft | 515 kts | 246° |
| 2026-04-26 11:34 | 53.80187 | -52.72089 | 39979 ft | 515 kts | 246° |
| 2026-04-26 11:35 | 53.77195 | -52.83041 | 39943 ft | 516 kts | 246° |
| 2026-04-26 11:35 | 53.74172 | -52.94022 | 39941 ft | 513 kts | 246° |
| 2026-04-26 11:36 | 53.71181 | -53.04859 | 39943 ft | 511 kts | 246° |
| 2026-04-26 11:36 | 53.68174 | -53.15773 | 39951 ft | 511 kts | 246° |
| 2026-04-26 11:37 | 53.65146 | -53.26640 | 39952 ft | 511 kts | 246° |
| 2026-04-26 11:37 | 53.62129 | -53.37430 | 39944 ft | 512 kts | 246° |
| 2026-04-26 11:38 | 53.59074 | -53.48328 | 39949 ft | 513 kts | 246° |
| 2026-04-26 11:38 | 53.56016 | -53.59128 | 39941 ft | 513 kts | 246° |
| 2026-04-26 11:39 | 53.52930 | -53.70007 | 39943 ft | 511 kts | 246° |
| 2026-04-26 11:39 | 53.49869 | -53.80769 | 39943 ft | 510 kts | 246° |
| 2026-04-26 11:40 | 53.46792 | -53.91598 | 39940 ft | 515 kts | 246° |
| 2026-04-26 11:40 | 53.43712 | -54.02460 | 39952 ft | 520 kts | 245° |
| 2026-04-26 11:42 | 53.31135 | -54.45528 | 39932 ft | 510 kts | 245° |
| 2026-04-26 11:43 | 53.28025 | -54.56110 | 39939 ft | 511 kts | 245° |
| 2026-04-26 11:43 | 53.24872 | -54.66772 | 39931 ft | 511 kts | 245° |
| 2026-04-26 11:44 | 53.21730 | -54.77407 | 39928 ft | 511 kts | 245° |
| 2026-04-26 11:44 | 53.18554 | -54.88047 | 39933 ft | 511 kts | 245° |
| 2026-04-26 11:45 | 53.15375 | -54.98624 | 39928 ft | 512 kts | 245° |
| 2026-04-26 11:45 | 53.12187 | -55.09254 | 39926 ft | 512 kts | 245° |
| 2026-04-26 11:46 | 53.09008 | -55.19795 | 39928 ft | 511 kts | 245° |
| 2026-04-26 11:46 | 53.05825 | -55.30306 | 39917 ft | 510 kts | 245° |
| 2026-04-26 11:47 | 53.02618 | -55.40822 | 39912 ft | 510 kts | 245° |
| 2026-04-26 11:47 | 52.99389 | -55.51362 | 39917 ft | 510 kts | 245° |
| 2026-04-26 11:48 | 52.96168 | -55.61832 | 39920 ft | 512 kts | 245° |
| 2026-04-26 11:48 | 52.92914 | -55.72374 | 39918 ft | 512 kts | 245° |
| 2026-04-26 11:49 | 52.89675 | -55.82853 | 39916 ft | 513 kts | 245° |
| 2026-04-26 11:49 | 52.86399 | -55.93362 | 39922 ft | 514 kts | 244° |
| 2026-04-26 11:50 | 52.83109 | -56.03905 | 39920 ft | 515 kts | 245° |
| 2026-04-26 11:50 | 52.79824 | -56.14364 | 39918 ft | 515 kts | 245° |
| 2026-04-26 11:51 | 52.76517 | -56.24840 | 39922 ft | 515 kts | 245° |
| 2026-04-26 11:51 | 52.73172 | -56.35297 | 39905 ft | 515 kts | 242° |
| 2026-04-26 11:52 | 52.69998 | -56.43618 | 39922 ft | 514 kts | 238° |
| 2026-04-26 11:52 | 52.65406 | -56.55057 | 39919 ft | 512 kts | 238° |
| 2026-04-26 11:53 | 52.61488 | -56.64820 | 39913 ft | 509 kts | 238° |
| 2026-04-26 11:54 | 52.55656 | -56.79448 | 39929 ft | 511 kts | 239° |
| 2026-04-26 11:54 | 52.51730 | -56.89229 | 39918 ft | 513 kts | 238° |
| 2026-04-26 11:55 | 52.47789 | -56.98991 | 39929 ft | 512 kts | 238° |
| 2026-04-26 11:55 | 52.43859 | -57.08734 | 39932 ft | 516 kts | 238° |
| 2026-04-26 11:56 | 52.39892 | -57.18517 | 39932 ft | 517 kts | 238° |
| 2026-04-26 11:56 | 52.35872 | -57.28356 | 39936 ft | 517 kts | 238° |
| 2026-04-26 11:57 | 52.31895 | -57.38095 | 39952 ft | 515 kts | 238° |
| 2026-04-26 11:57 | 52.27913 | -57.47832 | 39957 ft | 515 kts | 238° |
| 2026-04-26 11:58 | 52.23922 | -57.57504 | 39953 ft | 517 kts | 238° |
| 2026-04-26 11:58 | 52.19899 | -57.67249 | 39949 ft | 516 kts | 238° |
| 2026-04-26 11:59 | 52.15871 | -57.76966 | 39951 ft | 515 kts | 238° |
| 2026-04-26 11:59 | 52.11852 | -57.86585 | 39953 ft | 516 kts | 238° |
| 2026-04-26 12:00 | 52.07802 | -57.96259 | 39959 ft | 516 kts | 238° |
| 2026-04-26 12:00 | 52.03782 | -58.05844 | 39956 ft | 514 kts | 238° |
| 2026-04-26 12:01 | 51.99744 | -58.15439 | 39959 ft | 514 kts | 238° |
| 2026-04-26 12:01 | 51.95716 | -58.24951 | 39961 ft | 514 kts | 238° |
| 2026-04-26 12:02 | 51.91662 | -58.34520 | 39965 ft | 513 kts | 237° |
| 2026-04-26 12:02 | 51.87623 | -58.43987 | 39964 ft | 514 kts | 238° |
| 2026-04-26 12:03 | 51.83546 | -58.53523 | 39964 ft | 515 kts | 237° |
| 2026-04-26 12:03 | 51.79480 | -58.62993 | 39982 ft | 513 kts | 237° |
| 2026-04-26 12:04 | 51.75378 | -58.72509 | 39993 ft | 515 kts | 237° |
| 2026-04-26 12:04 | 51.71270 | -58.81966 | 39988 ft | 515 kts | 237° |
| 2026-04-26 12:05 | 51.67184 | -58.91341 | 39986 ft | 513 kts | 236° |
| 2026-04-26 12:05 | 51.63101 | -59.00778 | 39997 ft | 515 kts | 237° |
| 2026-04-26 12:06 | 51.59002 | -59.10187 | 40001 ft | 515 kts | 236° |
| 2026-04-26 12:06 | 51.54853 | -59.19647 | 40004 ft | 516 kts | 236° |
| 2026-04-26 12:07 | 51.50712 | -59.29027 | 40018 ft | 518 kts | 236° |
| 2026-04-26 12:07 | 51.46539 | -59.38499 | 40020 ft | 519 kts | 236° |
| 2026-04-26 12:08 | 51.42368 | -59.47905 | 40031 ft | 519 kts | 236° |
| 2026-04-26 12:08 | 51.38177 | -59.57301 | 40026 ft | 519 kts | 236° |
| 2026-04-26 12:09 | 51.33973 | -59.66701 | 40032 ft | 519 kts | 236° |
| 2026-04-26 12:09 | 51.29763 | -59.76106 | 40038 ft | 519 kts | 236° |
| 2026-04-26 12:10 | 51.25570 | -59.85434 | 40034 ft | 518 kts | 236° |
| 2026-04-26 12:10 | 51.21346 | -59.94759 | 40038 ft | 517 kts | 236° |
| 2026-04-26 12:11 | 51.17122 | -60.04071 | 40047 ft | 517 kts | 235° |
| 2026-04-26 12:11 | 51.12911 | -60.13344 | 40051 ft | 519 kts | 236° |
| 2026-04-26 12:12 | 51.08669 | -60.22636 | 40057 ft | 517 kts | 236° |
| 2026-04-26 12:12 | 51.04444 | -60.31857 | 40045 ft | 515 kts | 236° |
| 2026-04-26 12:13 | 51.00242 | -60.41004 | 40044 ft | 514 kts | 235° |
| 2026-04-26 12:13 | 50.96040 | -60.50148 | 40096 ft | 512 kts | 235° |
| 2026-04-26 12:14 | 50.91815 | -60.59262 | 40106 ft | 511 kts | 234° |
| 2026-04-26 12:14 | 50.87593 | -60.68191 | 40099 ft | 511 kts | 235° |
| 2026-04-26 12:15 | 50.83374 | -60.77358 | 40099 ft | 513 kts | 236° |
| 2026-04-26 12:15 | 50.79206 | -60.86455 | 40103 ft | 514 kts | 236° |
| 2026-04-26 12:16 | 50.74982 | -60.95615 | 40099 ft | 515 kts | 233° |
| 2026-04-26 12:16 | 50.70654 | -61.04525 | 40095 ft | 513 kts | 234° |
| 2026-04-26 12:17 | 50.66374 | -61.13488 | 40090 ft | 510 kts | 235° |
| 2026-04-26 12:17 | 50.62138 | -61.22354 | 40103 ft | 505 kts | 234° |
| 2026-04-26 12:18 | 50.57914 | -61.31138 | 40090 ft | 509 kts | 235° |
| 2026-04-26 12:18 | 50.53720 | -61.40161 | 40115 ft | 512 kts | 237° |
| 2026-04-26 12:19 | 50.49480 | -61.49197 | 40090 ft | 511 kts | 234° |
| 2026-04-26 12:19 | 50.45192 | -61.58015 | 40081 ft | 510 kts | 234° |
| 2026-04-26 12:20 | 50.40888 | -61.66834 | 40082 ft | 507 kts | 234° |
| 2026-04-26 12:20 | 50.36636 | -61.75676 | 40080 ft | 507 kts | 234° |
| 2026-04-26 12:21 | 50.33061 | -61.82954 | 40087 ft | 507 kts | 234° |
| 2026-04-26 12:21 | 50.28751 | -61.91630 | 40098 ft | 506 kts | 234° |
| 2026-04-26 12:22 | 50.24459 | -62.00464 | 40077 ft | 510 kts | 237° |
| 2026-04-26 12:22 | 50.20199 | -62.09210 | 40099 ft | 503 kts | 234° |
| 2026-04-26 12:23 | 50.15921 | -62.17781 | 40097 ft | 507 kts | 233° |
| 2026-04-26 12:23 | 50.11624 | -62.26466 | 40085 ft | 503 kts | 234° |
| 2026-04-26 12:24 | 50.07362 | -62.35152 | 40118 ft | 506 kts | 234° |
| 2026-04-26 12:24 | 50.03082 | -62.43858 | 40099 ft | 505 kts | 234° |
| 2026-04-26 12:25 | 49.96727 | -62.56771 | 40113 ft | 500 kts | 234° |
| 2026-04-26 12:25 | 49.92448 | -62.65333 | 40094 ft | 502 kts | 233° |
| 2026-04-26 12:26 | 49.88113 | -62.73838 | 40128 ft | 500 kts | 233° |
| 2026-04-26 12:26 | 49.83794 | -62.82268 | 40116 ft | 497 kts | 232° |
| 2026-04-26 12:27 | 49.79528 | -62.90614 | 40111 ft | 499 kts | 234° |
| 2026-04-26 12:27 | 49.75244 | -62.99088 | 40137 ft | 499 kts | 233° |
| 2026-04-26 12:28 | 49.70998 | -63.07505 | 40132 ft | 499 kts | 233° |
| 2026-04-26 12:28 | 49.66703 | -63.15932 | 40134 ft | 498 kts | 233° |
| 2026-04-26 12:29 | 49.62368 | -63.24326 | 40139 ft | 503 kts | 233° |
| 2026-04-26 12:30 | 49.55874 | -63.37073 | 40132 ft | 505 kts | 232° |
| 2026-04-26 12:30 | 49.51454 | -63.45592 | 40137 ft | 508 kts | 233° |
| 2026-04-26 12:31 | 49.44909 | -63.58356 | 40148 ft | 506 kts | 232° |
| 2026-04-26 12:31 | 49.40483 | -63.66789 | 40132 ft | 505 kts | 232° |
| 2026-04-26 12:32 | 49.36121 | -63.75108 | 40138 ft | 499 kts | 232° |
| 2026-04-26 12:33 | 49.29627 | -63.87476 | 40168 ft | 500 kts | 232° |
| 2026-04-26 12:33 | 49.25280 | -63.95821 | 40152 ft | 505 kts | 233° |
| 2026-04-26 12:34 | 49.20911 | -64.04298 | 40154 ft | 507 kts | 231° |
| 2026-04-26 12:34 | 49.16395 | -64.12638 | 40145 ft | 506 kts | 231° |
| 2026-04-26 12:35 | 49.11989 | -64.20798 | 40143 ft | 498 kts | 232° |
| 2026-04-26 12:35 | 49.07627 | -64.28972 | 40129 ft | 494 kts | 232° |
| 2026-04-26 12:36 | 49.03280 | -64.37150 | 40144 ft | 496 kts | 232° |
| 2026-04-26 12:36 | 48.98933 | -64.45264 | 40142 ft | 500 kts | 232° |
| 2026-04-26 12:37 | 48.94524 | -64.53405 | 40156 ft | 497 kts | 231° |
| 2026-04-26 12:37 | 48.90104 | -64.61528 | 40168 ft | 497 kts | 232° |
| 2026-04-26 12:38 | 48.85755 | -64.69614 | 40137 ft | 497 kts | 232° |
| 2026-04-26 12:38 | 48.81317 | -64.77723 | 40155 ft | 498 kts | 232° |
| 2026-04-26 12:39 | 48.76922 | -64.85842 | 40151 ft | 497 kts | 232° |
| 2026-04-26 12:39 | 48.72507 | -64.93926 | 40149 ft | 498 kts | 232° |
| 2026-04-26 12:40 | 48.68101 | -65.01965 | 40156 ft | 497 kts | 232° |
| 2026-04-26 12:40 | 48.63774 | -65.10101 | 40147 ft | 492 kts | 232° |
| 2026-04-26 12:41 | 48.59343 | -65.17964 | 40173 ft | 496 kts | 231° |
| 2026-04-26 12:41 | 48.54877 | -65.25921 | 40159 ft | 497 kts | 231° |
| 2026-04-26 12:42 | 48.50488 | -65.33910 | 40157 ft | 495 kts | 231° |
| 2026-04-26 12:42 | 48.46059 | -65.41921 | 40167 ft | 498 kts | 231° |
| 2026-04-26 12:43 | 48.41556 | -65.49828 | 40170 ft | 499 kts | 231° |
| 2026-04-26 12:43 | 48.37086 | -65.57839 | 40171 ft | 497 kts | 232° |
| 2026-04-26 12:44 | 48.32661 | -65.65819 | 40157 ft | 493 kts | 231° |
| 2026-04-26 12:44 | 48.28278 | -65.73656 | 40171 ft | 491 kts | 231° |
| 2026-04-26 12:45 | 48.23849 | -65.81487 | 40173 ft | 492 kts | 231° |
| 2026-04-26 12:45 | 48.19457 | -65.89251 | 40174 ft | 487 kts | 231° |
| 2026-04-26 12:46 | 48.15040 | -65.97031 | 40191 ft | 490 kts | 231° |
| 2026-04-26 12:46 | 48.10612 | -66.04800 | 40172 ft | 494 kts | 231° |
| 2026-04-26 12:47 | 48.06143 | -66.12636 | 40178 ft | 494 kts | 231° |
| 2026-04-26 12:47 | 48.01686 | -66.20402 | 40192 ft | 495 kts | 231° |
| 2026-04-26 12:48 | 47.97208 | -66.28212 | 40192 ft | 493 kts | 231° |
| 2026-04-26 12:48 | 47.92721 | -66.36002 | 40193 ft | 494 kts | 231° |
| 2026-04-26 12:49 | 47.88257 | -66.43730 | 40179 ft | 494 kts | 231° |
| 2026-04-26 12:49 | 47.83772 | -66.51490 | 40180 ft | 492 kts | 230° |
| 2026-04-26 12:50 | 47.79304 | -66.59175 | 40181 ft | 493 kts | 231° |
| 2026-04-26 12:50 | 47.74805 | -66.66895 | 40183 ft | 493 kts | 231° |
| 2026-04-26 12:51 | 47.70287 | -66.74609 | 40193 ft | 494 kts | 231° |
| 2026-04-26 12:51 | 47.65802 | -66.82270 | 40179 ft | 492 kts | 231° |
| 2026-04-26 12:52 | 47.61310 | -66.89907 | 40194 ft | 491 kts | 230° |
| 2026-04-26 12:52 | 47.56844 | -66.97479 | 40195 ft | 490 kts | 230° |
| 2026-04-26 12:53 | 47.52353 | -67.05078 | 40194 ft | 489 kts | 230° |
| 2026-04-26 12:53 | 47.47872 | -67.12639 | 40196 ft | 488 kts | 230° |
| 2026-04-26 12:54 | 47.43409 | -67.20150 | 40194 ft | 487 kts | 230° |
| 2026-04-26 12:54 | 47.38923 | -67.27680 | 40195 ft | 486 kts | 230° |
| 2026-04-26 12:55 | 47.34402 | -67.35059 | 40191 ft | 486 kts | 228° |
| 2026-04-26 12:55 | 47.29670 | -67.42221 | 40189 ft | 486 kts | 227° |
| 2026-04-26 12:56 | 47.24943 | -67.49296 | 40180 ft | 487 kts | 227° |
| 2026-04-26 12:56 | 47.20205 | -67.56440 | 40189 ft | 487 kts | 227° |
| 2026-04-26 12:57 | 47.15485 | -67.63586 | 40185 ft | 487 kts | 227° |
| 2026-04-26 12:57 | 47.10772 | -67.70712 | 40191 ft | 487 kts | 227° |
| 2026-04-26 12:58 | 47.03707 | -67.81355 | 40190 ft | 487 kts | 227° |
| 2026-04-26 12:58 | 46.98973 | -67.88458 | 40180 ft | 486 kts | 227° |
| 2026-04-26 12:59 | 46.94231 | -67.95555 | 40185 ft | 486 kts | 227° |
| 2026-04-26 12:59 | 46.89502 | -68.02615 | 40191 ft | 485 kts | 227° |
| 2026-04-26 13:00 | 46.84815 | -68.09589 | 40180 ft | 483 kts | 227° |
| 2026-04-26 13:00 | 46.80091 | -68.16603 | 40190 ft | 482 kts | 227° |
| 2026-04-26 13:01 | 46.75404 | -68.23543 | 40189 ft | 480 kts | 227° |
| 2026-04-26 13:01 | 46.70706 | -68.30482 | 40196 ft | 479 kts | 227° |
| 2026-04-26 13:02 | 46.66012 | -68.37396 | 40188 ft | 478 kts | 227° |
| 2026-04-26 13:02 | 46.61354 | -68.44239 | 40202 ft | 478 kts | 227° |
| 2026-04-26 13:03 | 46.56667 | -68.51107 | 40203 ft | 477 kts | 227° |
| 2026-04-26 13:03 | 46.52014 | -68.57908 | 40192 ft | 477 kts | 227° |
| 2026-04-26 13:04 | 46.47326 | -68.64743 | 40195 ft | 477 kts | 227° |
| 2026-04-26 13:04 | 46.42654 | -68.71535 | 40200 ft | 477 kts | 227° |
| 2026-04-26 13:05 | 46.37959 | -68.78343 | 40203 ft | 477 kts | 227° |
| 2026-04-26 13:05 | 46.33248 | -68.85158 | 40207 ft | 477 kts | 227° |
| 2026-04-26 13:06 | 46.29339 | -68.90800 | 40201 ft | 477 kts | 227° |
| 2026-04-26 13:06 | 46.23858 | -68.98688 | 40205 ft | 478 kts | 227° |
| 2026-04-26 13:07 | 46.19934 | -69.04322 | 40199 ft | 478 kts | 227° |
| 2026-04-26 13:07 | 46.15207 | -69.11092 | 40194 ft | 478 kts | 227° |
| 2026-04-26 13:08 | 46.10504 | -69.17811 | 40192 ft | 477 kts | 227° |
| 2026-04-26 13:08 | 46.05776 | -69.24549 | 40195 ft | 477 kts | 227° |
| 2026-04-26 13:09 | 46.01056 | -69.31257 | 40197 ft | 476 kts | 227° |
| 2026-04-26 13:09 | 45.96367 | -69.37905 | 40195 ft | 475 kts | 227° |
| 2026-04-26 13:10 | 45.91652 | -69.44574 | 40178 ft | 473 kts | 227° |
| 2026-04-26 13:10 | 45.86981 | -69.51163 | 40190 ft | 471 kts | 227° |
| 2026-04-26 13:11 | 45.82301 | -69.57748 | 40189 ft | 470 kts | 227° |
| 2026-04-26 13:11 | 45.77656 | -69.64268 | 40170 ft | 470 kts | 227° |
| 2026-04-26 13:12 | 45.72973 | -69.70826 | 40176 ft | 469 kts | 227° |
| 2026-04-26 13:12 | 45.68316 | -69.77332 | 40170 ft | 469 kts | 227° |
| 2026-04-26 13:13 | 45.63633 | -69.83857 | 40166 ft | 469 kts | 226° |
| 2026-04-26 13:13 | 45.58951 | -69.90365 | 40174 ft | 469 kts | 226° |
| 2026-04-26 13:14 | 45.54293 | -69.96824 | 40175 ft | 470 kts | 226° |
| 2026-04-26 13:14 | 45.49594 | -70.03324 | 40176 ft | 470 kts | 226° |
| 2026-04-26 13:15 | 45.44889 | -70.09815 | 40175 ft | 471 kts | 226° |
| 2026-04-26 13:15 | 45.40170 | -70.16310 | 40174 ft | 471 kts | 226° |
| 2026-04-26 13:16 | 45.35484 | -70.22743 | 40175 ft | 470 kts | 226° |
| 2026-04-26 13:16 | 45.30768 | -70.29203 | 40174 ft | 470 kts | 226° |
| 2026-04-26 13:17 | 45.23684 | -70.38877 | 40173 ft | 470 kts | 226° |
| 2026-04-26 13:18 | 45.16627 | -70.48479 | 40181 ft | 469 kts | 226° |
| 2026-04-26 13:19 | 45.09590 | -70.58019 | 40180 ft | 468 kts | 226° |
| 2026-04-26 13:19 | 45.04877 | -70.64389 | 40187 ft | 467 kts | 226° |
| 2026-04-26 13:20 | 45.00164 | -70.70743 | 40189 ft | 467 kts | 226° |
| 2026-04-26 13:20 | 44.95483 | -70.77040 | 40182 ft | 466 kts | 226° |
| 2026-04-26 13:21 | 44.90766 | -70.83370 | 40180 ft | 466 kts | 226° |
| 2026-04-26 13:21 | 44.86086 | -70.89636 | 40185 ft | 466 kts | 226° |
| 2026-04-26 13:22 | 44.81375 | -70.95929 | 40182 ft | 466 kts | 226° |
| 2026-04-26 13:22 | 44.76692 | -71.02169 | 40192 ft | 465 kts | 226° |
| 2026-04-26 13:23 | 44.71976 | -71.08438 | 40178 ft | 465 kts | 225° |
| 2026-04-26 13:23 | 44.67259 | -71.14694 | 40181 ft | 465 kts | 225° |
| 2026-04-26 13:24 | 44.62576 | -71.20890 | 40192 ft | 465 kts | 225° |
| 2026-04-26 13:24 | 44.57848 | -71.27132 | 40188 ft | 465 kts | 225° |
| 2026-04-26 13:25 | 44.53154 | -71.33314 | 40184 ft | 465 kts | 225° |
| 2026-04-26 13:25 | 44.48427 | -71.39524 | 40178 ft | 465 kts | 225° |
| 2026-04-26 13:26 | 44.43701 | -71.45721 | 40186 ft | 464 kts | 225° |
| 2026-04-26 13:26 | 44.38999 | -71.51871 | 40179 ft | 464 kts | 225° |
| 2026-04-26 13:27 | 44.34271 | -71.58040 | 40181 ft | 464 kts | 225° |
| 2026-04-26 13:27 | 44.29588 | -71.64139 | 40190 ft | 463 kts | 225° |
| 2026-04-26 13:28 | 44.24859 | -71.70284 | 40191 ft | 463 kts | 225° |
| 2026-04-26 13:28 | 44.20357 | -71.76609 | 40194 ft | 460 kts | 232° |
| 2026-04-26 13:29 | 44.16547 | -71.83752 | 40187 ft | 458 kts | 236° |
| 2026-04-26 13:29 | 44.12785 | -71.90944 | 40180 ft | 458 kts | 236° |
| 2026-04-26 13:30 | 44.09020 | -71.98075 | 40191 ft | 458 kts | 235° |
| 2026-04-26 13:30 | 44.05230 | -72.05201 | 40188 ft | 458 kts | 235° |
| 2026-04-26 13:31 | 44.01431 | -72.12320 | 40198 ft | 458 kts | 235° |
| 2026-04-26 13:31 | 43.97650 | -72.19388 | 40201 ft | 458 kts | 235° |
| 2026-04-26 13:32 | 43.93840 | -72.26495 | 40206 ft | 458 kts | 235° |
| 2026-04-26 13:32 | 43.90030 | -72.33584 | 40205 ft | 458 kts | 235° |
| 2026-04-26 13:33 | 43.86232 | -72.40635 | 40205 ft | 459 kts | 235° |
| 2026-04-26 13:33 | 43.82405 | -72.47721 | 40207 ft | 459 kts | 235° |
| 2026-04-26 13:34 | 43.78575 | -72.54796 | 40200 ft | 459 kts | 235° |
| 2026-04-26 13:34 | 43.74764 | -72.61820 | 40201 ft | 458 kts | 234° |
| 2026-04-26 13:35 | 43.70926 | -72.68876 | 40198 ft | 458 kts | 234° |
| 2026-04-26 13:35 | 43.67088 | -72.75917 | 40205 ft | 457 kts | 234° |
| 2026-04-26 13:36 | 43.63273 | -72.82896 | 40200 ft | 457 kts | 234° |
| 2026-04-26 13:36 | 43.59437 | -72.89897 | 40207 ft | 457 kts | 234° |
| 2026-04-26 13:37 | 43.55599 | -72.96887 | 40200 ft | 456 kts | 234° |
| 2026-04-26 13:37 | 43.51781 | -73.03823 | 40203 ft | 456 kts | 234° |
| 2026-04-26 13:38 | 43.47941 | -73.10783 | 40204 ft | 456 kts | 234° |
| 2026-04-26 13:38 | 43.44100 | -73.17729 | 40203 ft | 455 kts | 234° |
| 2026-04-26 13:39 | 43.40273 | -73.24632 | 40201 ft | 455 kts | 234° |
| 2026-04-26 13:39 | 43.36423 | -73.31561 | 40205 ft | 455 kts | 234° |
| 2026-04-26 13:40 | 43.32569 | -73.38481 | 40205 ft | 455 kts | 234° |
| 2026-04-26 13:40 | 43.28720 | -73.45377 | 40206 ft | 455 kts | 234° |
| 2026-04-26 13:41 | 43.24883 | -73.52239 | 40201 ft | 455 kts | 234° |
| 2026-04-26 13:41 | 43.20943 | -73.59041 | 40190 ft | 455 kts | 226° |
| 2026-04-26 13:41 | 43.18439 | -73.61701 | 40205 ft | 459 kts | 212° |
| 2026-04-26 13:42 | 43.15490 | -73.63399 | 40195 ft | 462 kts | 199° |
| 2026-04-26 13:42 | 43.09323 | -73.65839 | 40202 ft | 464 kts | 199° |
| 2026-04-26 13:43 | 43.03113 | -73.68373 | 40208 ft | 466 kts | 200° |
| 2026-04-26 13:43 | 42.96895 | -73.70987 | 40205 ft | 467 kts | 200° |
| 2026-04-26 13:44 | 42.90720 | -73.73596 | 40204 ft | 467 kts | 200° |
| 2026-04-26 13:44 | 42.84493 | -73.76219 | 40202 ft | 467 kts | 200° |
| 2026-04-26 13:45 | 42.78321 | -73.78811 | 40209 ft | 465 kts | 200° |
| 2026-04-26 13:45 | 42.72143 | -73.81430 | 40208 ft | 463 kts | 201° |
| 2026-04-26 13:46 | 42.66023 | -73.84184 | 40214 ft | 461 kts | 202° |
| 2026-04-26 13:46 | 42.59945 | -73.86939 | 40209 ft | 460 kts | 202° |
| 2026-04-26 13:47 | 42.53892 | -73.89658 | 40202 ft | 458 kts | 202° |
| 2026-04-26 13:47 | 42.47826 | -73.92367 | 40201 ft | 457 kts | 202° |
| 2026-04-26 13:48 | 42.41784 | -73.95058 | 40195 ft | 457 kts | 202° |
| 2026-04-26 13:48 | 42.35752 | -73.97739 | 40197 ft | 456 kts | 202° |
| 2026-04-26 13:49 | 42.29755 | -74.00402 | 40201 ft | 455 kts | 202° |
| 2026-04-26 13:49 | 42.23725 | -74.03073 | 40193 ft | 455 kts | 202° |
| 2026-04-26 13:50 | 42.17693 | -74.05738 | 40195 ft | 455 kts | 202° |
| 2026-04-26 13:50 | 42.11663 | -74.08400 | 40194 ft | 456 kts | 202° |
| 2026-04-26 13:51 | 42.05667 | -74.11041 | 40188 ft | 456 kts | 202° |
| 2026-04-26 13:51 | 41.99629 | -74.13690 | 40180 ft | 456 kts | 202° |
| 2026-04-26 13:52 | 41.93582 | -74.16338 | 40193 ft | 456 kts | 202° |
| 2026-04-26 13:52 | 41.87583 | -74.18962 | 40178 ft | 456 kts | 202° |
| 2026-04-26 13:53 | 41.81536 | -74.21601 | 40171 ft | 456 kts | 202° |
| 2026-04-26 13:53 | 41.75516 | -74.24225 | 40174 ft | 456 kts | 202° |
| 2026-04-26 13:54 | 41.70482 | -74.26416 | 40178 ft | 456 kts | 202° |
| 2026-04-26 13:54 | 41.63451 | -74.29469 | 40173 ft | 456 kts | 202° |
| 2026-04-26 13:55 | 41.56388 | -74.32528 | 40175 ft | 456 kts | 202° |
| 2026-04-26 13:56 | 41.46326 | -74.36875 | 40176 ft | 456 kts | 202° |
| 2026-04-26 13:56 | 41.40320 | -74.39463 | 40175 ft | 456 kts | 202° |
| 2026-04-26 13:57 | 41.34285 | -74.42058 | 40174 ft | 456 kts | 202° |
| 2026-04-26 13:57 | 41.28245 | -74.44650 | 40181 ft | 456 kts | 202° |
| 2026-04-26 13:58 | 41.22193 | -74.47241 | 40175 ft | 456 kts | 202° |
| 2026-04-26 13:58 | 41.16190 | -74.49806 | 40170 ft | 456 kts | 202° |
| 2026-04-26 13:59 | 41.10151 | -74.52383 | 40176 ft | 455 kts | 202° |
| 2026-04-26 13:59 | 41.03988 | -74.54403 | 40174 ft | 462 kts | 189° |
| 2026-04-26 14:00 | 40.91227 | -74.55252 | 40148 ft | 442 kts | 188° |
| 2026-04-26 14:01 | 40.85120 | -74.55819 | 40159 ft | 438 kts | 189° |
| 2026-04-26 14:01 | 40.79031 | -74.56020 | 40180 ft | 442 kts | 182° |
| 2026-04-26 14:02 | 40.72852 | -74.55517 | 40169 ft | 443 kts | 182° |
| 2026-04-26 14:02 | 40.66718 | -74.55136 | 40170 ft | 443 kts | 183° |
| 2026-04-26 14:03 | 40.60532 | -74.54589 | 40170 ft | 446 kts | 179° |
| 2026-04-26 14:03 | 40.54391 | -74.53503 | 40160 ft | 448 kts | 177° |
| 2026-04-26 14:04 | 40.48193 | -74.52372 | 40157 ft | 448 kts | 178° |
| 2026-04-26 14:04 | 40.41995 | -74.51361 | 40157 ft | 448 kts | 179° |
| 2026-04-26 14:05 | 40.35820 | -74.50429 | 40165 ft | 448 kts | 179° |
| 2026-04-26 14:05 | 40.29613 | -74.49486 | 40167 ft | 448 kts | 178° |
| 2026-04-26 14:06 | 40.23448 | -74.48509 | 40165 ft | 448 kts | 179° |
| 2026-04-26 14:06 | 40.17251 | -74.47581 | 40164 ft | 447 kts | 179° |
| 2026-04-26 14:07 | 40.11049 | -74.46662 | 40154 ft | 447 kts | 179° |
| 2026-04-26 14:07 | 40.04928 | -74.45406 | 40016 ft | 451 kts | 166° |
| 2026-04-26 14:07 | 40.02109 | -74.43559 | 39542 ft | 459 kts | 149° |
| 2026-04-26 14:08 | 39.99763 | -74.40693 | 39091 ft | 466 kts | 131° |
| 2026-04-26 14:08 | 39.98105 | -74.37034 | 38645 ft | 471 kts | 114° |
| 2026-04-26 14:08 | 39.97283 | -74.32896 | 38176 ft | 474 kts | 97° |
| 2026-04-26 14:08 | 39.97367 | -74.28609 | 37686 ft | 474 kts | 79° |
| 2026-04-26 14:09 | 39.98330 | -74.24577 | 37177 ft | 470 kts | 62° |
| 2026-04-26 14:09 | 40.00107 | -74.21045 | 36665 ft | 463 kts | 44° |
| 2026-04-26 14:09 | 40.02506 | -74.18301 | 36154 ft | 453 kts | 28° |
| 2026-04-26 14:09 | 40.05277 | -74.16509 | 35627 ft | 439 kts | 10° |
| 2026-04-26 14:10 | 40.08209 | -74.15531 | 35116 ft | 431 kts | 3° |
| 2026-04-26 14:10 | 40.11109 | -74.15188 | 34562 ft | 415 kts | 346° |
| 2026-04-26 14:10 | 40.13865 | -74.15968 | 33951 ft | 396 kts | 327° |
| 2026-04-26 14:10 | 40.16187 | -74.17729 | 33341 ft | 380 kts | 314° |
| 2026-04-26 14:11 | 40.20149 | -74.22230 | 32121 ft | 376 kts | 308° |
| 2026-04-26 14:11 | 40.22044 | -74.24596 | 31500 ft | 376 kts | 308° |
| 2026-04-26 14:11 | 40.23903 | -74.26955 | 30883 ft | 374 kts | 308° |
| 2026-04-26 14:12 | 40.25730 | -74.29277 | 30208 ft | 356 kts | 308° |
| 2026-04-26 14:12 | 40.27474 | -74.31490 | 29545 ft | 341 kts | 308° |
| 2026-04-26 14:12 | 40.29146 | -74.33617 | 28912 ft | 328 kts | 308° |
| 2026-04-26 14:12 | 40.30752 | -74.35666 | 28282 ft | 316 kts | 308° |
| 2026-04-26 14:13 | 40.33791 | -74.39564 | 27000 ft | 298 kts | 308° |
| 2026-04-26 14:13 | 40.35280 | -74.41505 | 26401 ft | 304 kts | 308° |
| 2026-04-26 14:13 | 40.36770 | -74.43479 | 25827 ft | 310 kts | 308° |
| 2026-04-26 14:14 | 40.38289 | -74.45527 | 25214 ft | 316 kts | 308° |
| 2026-04-26 14:14 | 40.39823 | -74.47635 | 24602 ft | 322 kts | 308° |
| 2026-04-26 14:14 | 40.41369 | -74.49800 | 23991 ft | 327 kts | 308° |
| 2026-04-26 14:14 | 40.42917 | -74.52006 | 23383 ft | 331 kts | 308° |
| 2026-04-26 14:15 | 40.44480 | -74.54268 | 22772 ft | 336 kts | 308° |
| 2026-04-26 14:15 | 40.46050 | -74.56567 | 22147 ft | 339 kts | 308° |
| 2026-04-26 14:15 | 40.47619 | -74.58894 | 21540 ft | 342 kts | 308° |
| 2026-04-26 14:15 | 40.49176 | -74.61235 | 20936 ft | 345 kts | 308° |
| 2026-04-26 14:16 | 40.50750 | -74.63633 | 20313 ft | 347 kts | 308° |
| 2026-04-26 14:16 | 40.52286 | -74.65994 | 19644 ft | 329 kts | 308° |
| 2026-04-26 14:16 | 40.53729 | -74.68236 | 18999 ft | 310 kts | 308° |
| 2026-04-26 14:16 | 40.55064 | -74.70330 | 18365 ft | 295 kts | 308° |
| 2026-04-26 14:17 | 40.56345 | -74.72366 | 17727 ft | 282 kts | 308° |
| 2026-04-26 14:17 | 40.57560 | -74.74323 | 17092 ft | 271 kts | 308° |
| 2026-04-26 14:17 | 40.58728 | -74.76224 | 16449 ft | 262 kts | 309° |
| 2026-04-26 14:17 | 40.60085 | -74.77758 | 15790 ft | 256 kts | 333° |
| 2026-04-26 14:18 | 40.61805 | -74.78221 | 15162 ft | 255 kts | 2° |
| 2026-04-26 14:18 | 40.63539 | -74.77736 | 14560 ft | 255 kts | 13° |
| 2026-04-26 14:18 | 40.65209 | -74.77031 | 13955 ft | 255 kts | 15° |
| 2026-04-26 14:18 | 40.66890 | -74.76294 | 13331 ft | 254 kts | 15° |
| 2026-04-26 14:19 | 40.68563 | -74.75562 | 12710 ft | 252 kts | 16° |
| 2026-04-26 14:19 | 40.70230 | -74.74840 | 12089 ft | 251 kts | 16° |
| 2026-04-26 14:19 | 40.71877 | -74.74139 | 11458 ft | 245 kts | 16° |
| 2026-04-26 14:19 | 40.73494 | -74.73468 | 10830 ft | 242 kts | 17° |
| 2026-04-26 14:20 | 40.74944 | -74.72418 | 10272 ft | 235 kts | 46° |
| 2026-04-26 14:20 | 40.75692 | -74.70612 | 10037 ft | 231 kts | 78° |
| 2026-04-26 14:20 | 40.75610 | -74.68455 | 9561 ft | 244 kts | 108° |
| 2026-04-26 14:20 | 40.74757 | -74.66476 | 8975 ft | 255 kts | 126° |
| 2026-04-26 14:21 | 40.73577 | -74.64668 | 8378 ft | 265 kts | 135° |
| 2026-04-26 14:21 | 40.72188 | -74.63027 | 7898 ft | 271 kts | 138° |
| 2026-04-26 14:21 | 40.70734 | -74.61412 | 7416 ft | 270 kts | 138° |
| 2026-04-26 14:21 | 40.69327 | -74.59886 | 6981 ft | 252 kts | 138° |
| 2026-04-26 14:22 | 40.67997 | -74.58483 | 6563 ft | 238 kts | 141° |
| 2026-04-26 14:22 | 40.66586 | -74.57333 | 6176 ft | 239 kts | 147° |
| 2026-04-26 14:22 | 40.65132 | -74.56290 | 5845 ft | 239 kts | 148° |
| 2026-04-26 14:22 | 40.63660 | -74.55262 | 5463 ft | 241 kts | 148° |
| 2026-04-26 14:23 | 40.62166 | -74.54225 | 4973 ft | 245 kts | 148° |
| 2026-04-26 14:23 | 40.60656 | -74.53186 | 4670 ft | 242 kts | 148° |
| 2026-04-26 14:23 | 40.59181 | -74.52190 | 4493 ft | 235 kts | 148° |
| 2026-04-26 14:23 | 40.57765 | -74.51244 | 4307 ft | 228 kts | 149° |
| 2026-04-26 14:24 | 40.56363 | -74.50319 | 4159 ft | 219 kts | 148° |
| 2026-04-26 14:24 | 40.55055 | -74.49416 | 3962 ft | 203 kts | 140° |
| 2026-04-26 14:24 | 40.54162 | -74.48070 | 3784 ft | 195 kts | 117° |
| 2026-04-26 14:24 | 40.53437 | -74.46539 | 3619 ft | 198 kts | 117° |
| 2026-04-26 14:25 | 40.52696 | -74.45029 | 3486 ft | 198 kts | 117° |
| 2026-04-26 14:25 | 40.51929 | -74.43473 | 3508 ft | 206 kts | 117° |
| 2026-04-26 14:25 | 40.51143 | -74.41867 | 3503 ft | 210 kts | 117° |
| 2026-04-26 14:25 | 40.50356 | -74.40246 | 3501 ft | 209 kts | 117° |
| 2026-04-26 14:26 | 40.49569 | -74.38640 | 3498 ft | 209 kts | 117° |
| 2026-04-26 14:26 | 40.48882 | -74.37248 | 3502 ft | 209 kts | 117° |
| 2026-04-26 14:26 | 40.48117 | -74.35654 | 3481 ft | 200 kts | 116° |
| 2026-04-26 14:26 | 40.47509 | -74.34071 | 3299 ft | 195 kts | 104° |
| 2026-04-26 14:27 | 40.47366 | -74.32368 | 3102 ft | 183 kts | 73° |
| 2026-04-26 14:27 | 40.48061 | -74.31018 | 3044 ft | 182 kts | 42° |
| 2026-04-26 14:27 | 40.49069 | -74.29972 | 3025 ft | 185 kts | 39° |
| 2026-04-26 14:27 | 40.50135 | -74.29022 | 3008 ft | 185 kts | 36° |
| 2026-04-26 14:28 | 40.51203 | -74.28110 | 2993 ft | 177 kts | 34° |
| 2026-04-26 14:28 | 40.52222 | -74.27346 | 3010 ft | 165 kts | 31° |
| 2026-04-26 14:28 | 40.53223 | -74.26672 | 3001 ft | 158 kts | 30° |
| 2026-04-26 14:28 | 40.54216 | -74.26033 | 2931 ft | 159 kts | 29° |
| 2026-04-26 14:29 | 40.55217 | -74.25391 | 2735 ft | 157 kts | 29° |
| 2026-04-26 14:29 | 40.56167 | -74.24789 | 2521 ft | 151 kts | 29° |
| 2026-04-26 14:29 | 40.57091 | -74.24202 | 2358 ft | 145 kts | 29° |
| 2026-04-26 14:29 | 40.58015 | -74.23611 | 2168 ft | 149 kts | 28° |
| 2026-04-26 14:30 | 40.58942 | -74.23031 | 1965 ft | 143 kts | 29° |
| 2026-04-26 14:30 | 40.59822 | -74.22471 | 1787 ft | 138 kts | 29° |
| 2026-04-26 14:30 | 40.60689 | -74.21917 | 1609 ft | 139 kts | 29° |
| 2026-04-26 14:30 | 40.61563 | -74.21362 | 1421 ft | 140 kts | 28° |
| 2026-04-26 14:31 | 40.62403 | -74.20829 | 1231 ft | 131 kts | 28° |
| 2026-04-26 14:31 | 40.63201 | -74.20321 | 1069 ft | 125 kts | 28° |
| 2026-04-26 14:31 | 40.63979 | -74.19827 | 910 ft | 124 kts | 28° |
| 2026-04-26 14:31 | 40.64737 | -74.19345 | 756 ft | 125 kts | 28° |
| 2026-04-26 14:32 | 40.65510 | -74.18853 | 599 ft | 122 kts | 26° |
| 2026-04-26 14:32 | 40.66269 | -74.18381 | 430 ft | 119 kts | 27° |
| 2026-04-26 14:32 | 40.67005 | -74.17912 | 297 ft | 117 kts | 28° |
| 2026-04-26 14:32 | 40.67734 | -74.17443 | 129 ft | 116 kts | 26° |
| 2026-04-26 14:33 | 40.68452 | -74.16986 | 39 ft | 113 kts | 26° |
| 2026-04-26 14:33 | 40.69041 | -74.16612 | 27 ft | 66 kts | 25° |
| 2026-04-26 14:33 | 40.69333 | -74.16429 | 29 ft | 42 kts | 26° |
| 2026-04-26 14:33 | 40.69552 | -74.16295 | 27 ft | 30 kts | 13° |
| 2026-04-26 14:34 | 40.69700 | -74.16304 | 27 ft | 19 kts | 345° |
| 2026-04-26 14:34 | 40.69815 | -74.16336 | 27 ft | 15 kts | 348° |
| 2026-04-26 14:34 | 40.69880 | -74.16438 | 24 ft | 15 kts | 292° |
| 2026-04-26 14:34 | 40.69904 | -74.16564 | 25 ft | 14 kts | 269° |
| 2026-04-26 14:35 | 40.69837 | -74.16645 | 27 ft | 14 kts | 203° |
| 2026-04-26 14:35 | 40.69748 | -74.16700 | 30 ft | 14 kts | 205° |
| 2026-04-26 14:35 | 40.69659 | -74.16756 | 26 ft | 14 kts | 205° |
| 2026-04-26 14:35 | 40.69571 | -74.16813 | 27 ft | 14 kts | 206° |
| 2026-04-26 14:36 | 40.69483 | -74.16870 | 27 ft | 14 kts | 206° |
| 2026-04-26 14:36 | 40.69394 | -74.16927 | 27 ft | 14 kts | 206° |
| 2026-04-26 14:36 | 40.69304 | -74.16981 | 26 ft | 14 kts | 205° |
| 2026-04-26 14:36 | 40.69226 | -74.17049 | 26 ft | 14 kts | 240° |
| 2026-04-26 14:37 | 40.69205 | -74.17161 | 26 ft | 13 kts | 218° |
| 2026-04-26 14:37 | 40.69178 | -74.17205 | 26 ft | 6 kts | 264° |
| 2026-04-26 14:37 | 40.69182 | -74.17259 | 26 ft | 6 kts | 275° |
| 2026-04-26 14:37 | 40.69185 | -74.17309 | 26 ft | 4 kts | 275° |
| 2026-04-26 14:38 | 40.69186 | -74.17318 | 26 ft | 1 kts | 275° |
| 2026-04-26 14:38 | 40.69187 | -74.17331 | 26 ft | 1 kts | 275° |
| 2026-04-26 14:38 | 40.69187 | -74.17337 | 26 ft | 0 kts | 275° |